Wetterdaten: Freitag, 17.05.2013
Datum Zeit Temp. Aussen +5cm Feuchte Auss Luftdruck Regen Sonnenschein Regendauer UV Solar Windben
17.05.2013 00:00 9,3 C 8,4 C 98 % 998,0 hPa 0,0 l/m 0 min 0 min 0,0 UV-I 0 W/m 0,0 km/h (0 Bft)
17.05.2013 00:02 9,3 C 8,4 C 98 % 998,0 hPa 0,0 l/m 0 min 0 min 0,0 UV-I 0 W/m 2,6 km/h (1 Bft)
17.05.2013 00:06 9,3 C 8,4 C 98 % 998,0 hPa 0,0 l/m 0 min 0 min 0,0 UV-I 0 W/m 7,7 km/h (2 Bft)
17.05.2013 00:08 9,3 C 8,4 C 98 % 998,0 hPa 0,0 l/m 0 min 0 min 0,0 UV-I 0 W/m 0,0 km/h (0 Bft)
17.05.2013 00:10 9,3 C 8,4 C 98 % 998,0 hPa 0,0 l/m 0 min 0 min 0,0 UV-I 0 W/m 10,3 km/h (2 Bft)
17.05.2013 00:12 9,3 C 8,4 C 98 % 998,0 hPa 0,0 l/m 0 min 0 min 0,0 UV-I 0 W/m 0,0 km/h (0 Bft)
17.05.2013 00:14 9,3 C 8,4 C 98 % 998,0 hPa 0,0 l/m 0 min 0 min 0,0 UV-I 0 W/m 0,0 km/h (0 Bft)
17.05.2013 00:16 9,3 C 8,4 C 98 % 998,1 hPa 0,0 l/m 0 min 0 min 0,0 UV-I 0 W/m 15,4 km/h (3 Bft)
17.05.2013 00:18 9,3 C 8,4 C 98 % 998,1 hPa 0,0 l/m 0 min 0 min 0,0 UV-I 0 W/m 15,4 km/h (3 Bft)
17.05.2013 00:20 9,3 C 8,4 C 98 % 998,0 hPa 0,0 l/m 0 min 0 min 0,0 UV-I 0 W/m 7,7 km/h (2 Bft)
17.05.2013 00:22 9,3 C 8,4 C 98 % 998,0 hPa 0,0 l/m 0 min 0 min 0,0 UV-I 0 W/m 15,4 km/h (3 Bft)
17.05.2013 00:24 9,3 C 8,4 C 98 % 998,0 hPa 0,0 l/m 0 min 0 min 0,0 UV-I 0 W/m 5,1 km/h (1 Bft)
17.05.2013 00:26 9,3 C 8,4 C 98 % 998,1 hPa 0,0 l/m 0 min 0 min 0,0 UV-I 0 W/m 0,0 km/h (0 Bft)
17.05.2013 00:28 9,2 C 8,4 C 98 % 998,2 hPa 0,0 l/m 0 min 0 min 0,0 UV-I 0 W/m 0,0 km/h (0 Bft)
17.05.2013 00:30 9,2 C 8,4 C 98 % 998,2 hPa 0,0 l/m 0 min 0 min 0,0 UV-I 0 W/m 5,1 km/h (1 Bft)
17.05.2013 00:32 9,2 C 8,4 C 98 % 998,2 hPa 0,0 l/m 0 min 0 min 0,0 UV-I 0 W/m 10,3 km/h (2 Bft)
17.05.2013 00:34 9,2 C 8,4 C 98 % 998,2 hPa 0,0 l/m 0 min 0 min 0,0 UV-I 0 W/m 7,7 km/h (2 Bft)
17.05.2013 00:36 9,2 C 8,4 C 98 % 998,2 hPa 0,0 l/m 0 min 0 min 0,0 UV-I 0 W/m 0,0 km/h (0 Bft)
17.05.2013 00:38 9,2 C 8,4 C 98 % 998,2 hPa 0,0 l/m 0 min 0 min 0,0 UV-I 0 W/m 5,1 km/h (1 Bft)
17.05.2013 00:40 9,2 C 8,4 C 98 % 998,2 hPa 0,0 l/m 0 min 0 min 0,0 UV-I 0 W/m 10,3 km/h (2 Bft)
17.05.2013 00:42 9,2 C 8,4 C 98 % 998,2 hPa 0,0 l/m 0 min 0 min 0,0 UV-I 0 W/m 2,6 km/h (1 Bft)
17.05.2013 00:44 9,2 C 8,4 C 98 % 998,3 hPa 0,0 l/m 0 min 0 min 0,0 UV-I 0 W/m 7,7 km/h (2 Bft)
17.05.2013 00:46 9,2 C 8,4 C 98 % 998,3 hPa 0,0 l/m 0 min 0 min 0,0 UV-I 0 W/m 5,1 km/h (1 Bft)
17.05.2013 00:48 9,2 C 8,4 C 98 % 998,2 hPa 0,0 l/m 0 min 0 min 0,0 UV-I 0 W/m 5,1 km/h (1 Bft)
17.05.2013 00:50 9,2 C 8,4 C 98 % 998,2 hPa 0,0 l/m 0 min 0 min 0,0 UV-I 0 W/m 7,7 km/h (2 Bft)
17.05.2013 00:52 9,2 C 8,4 C 98 % 998,3 hPa 0,0 l/m 0 min 0 min 0,0 UV-I 0 W/m 2,6 km/h (1 Bft)
17.05.2013 00:54 9,2 C 8,4 C 98 % 998,3 hPa 0,0 l/m 0 min 0 min 0,0 UV-I 0 W/m 0,0 km/h (0 Bft)
17.05.2013 00:56 9,2 C 8,4 C 98 % 998,3 hPa 0,0 l/m 0 min 0 min 0,0 UV-I 0 W/m 7,7 km/h (2 Bft)
17.05.2013 00:58 9,2 C 8,4 C 98 % 998,4 hPa 0,0 l/m 0 min 0 min 0,0 UV-I 0 W/m 7,7 km/h (2 Bft)
17.05.2013 01:00 9,2 C 8,4 C 98 % 998,5 hPa 0,0 l/m 0 min 0 min 0,0 UV-I 0 W/m 5,1 km/h (1 Bft)
17.05.2013 01:02 9,2 C 8,4 C 98 % 998,5 hPa 0,0 l/m 0 min 0 min 0,0 UV-I 0 W/m 0,0 km/h (0 Bft)
17.05.2013 01:04 9,2 C 8,4 C 98 % 998,4 hPa 0,0 l/m 0 min 0 min 0,0 UV-I 0 W/m 0,0 km/h (0 Bft)
17.05.2013 01:06 9,2 C 8,4 C 98 % 998,4 hPa 0,0 l/m 0 min 0 min 0,0 UV-I 0 W/m 10,3 km/h (2 Bft)
17.05.2013 01:08 9,1 C 8,4 C 98 % 998,3 hPa 0,0 l/m 0 min 0 min 0,0 UV-I 0 W/m 7,7 km/h (2 Bft)
17.05.2013 01:10 9,1 C 8,4 C 98 % 998,4 hPa 0,0 l/m 0 min 0 min 0,0 UV-I 0 W/m 7,7 km/h (2 Bft)
17.05.2013 01:12 9,1 C 8,4 C 98 % 998,4 hPa 0,0 l/m 0 min 0 min 0,0 UV-I 0 W/m 0,0 km/h (0 Bft)
17.05.2013 01:14 9,2 C 8,4 C 98 % 998,4 hPa 0,0 l/m 0 min 0 min 0,0 UV-I 0 W/m 0,0 km/h (0 Bft)
17.05.2013 01:16 9,1 C 8,4 C 98 % 998,3 hPa 0,0 l/m 0 min 0 min 0,0 UV-I 0 W/m 2,6 km/h (1 Bft)
17.05.2013 01:18 9,1 C 8,4 C 98 % 998,3 hPa 0,0 l/m 0 min 0 min 0,0 UV-I 0 W/m 0,0 km/h (0 Bft)
17.05.2013 01:20 9,1 C 8,4 C 98 % 998,2 hPa 0,0 l/m 0 min 0 min 0,0 UV-I 0 W/m 0,0 km/h (0 Bft)
17.05.2013 01:22 9,1 C 8,4 C 98 % 998,2 hPa 0,0 l/m 0 min 0 min 0,0 UV-I 0 W/m 5,1 km/h (1 Bft)
17.05.2013 01:24 9,1 C 8,4 C 98 % 998,2 hPa 0,0 l/m 0 min 0 min 0,0 UV-I 0 W/m 7,7 km/h (2 Bft)
17.05.2013 01:26 9,1 C 8,4 C 98 % 998,2 hPa 0,0 l/m 0 min 0 min 0,0 UV-I 0 W/m 0,0 km/h (0 Bft)
17.05.2013 01:28 9,1 C 8,4 C 97 % 998,3 hPa 0,0 l/m 0 min 0 min 0,0 UV-I 0 W/m 5,1 km/h (1 Bft)
17.05.2013 01:30 9,1 C 8,4 C 97 % 998,3 hPa 0,0 l/m 0 min 0 min 0,0 UV-I 0 W/m 0,0 km/h (0 Bft)
17.05.2013 01:32 9,1 C 8,4 C 97 % 998,3 hPa 0,0 l/m 0 min 0 min 0,0 UV-I 0 W/m 5,1 km/h (1 Bft)
17.05.2013 01:34 9,1 C 8,4 C 97 % 998,3 hPa 0,0 l/m 0 min 0 min 0,0 UV-I 0 W/m 7,7 km/h (2 Bft)
17.05.2013 01:36 9,1 C 8,4 C 97 % 998,3 hPa 0,0 l/m 0 min 0 min 0,0 UV-I 0 W/m 0,0 km/h (0 Bft)
17.05.2013 01:38 9,1 C 8,4 C 97 % 998,4 hPa 0,0 l/m 0 min 0 min 0,0 UV-I 0 W/m 0,0 km/h (0 Bft)
17.05.2013 01:40 9,1 C 8,4 C 97 % 998,4 hPa 0,0 l/m 0 min 0 min 0,0 UV-I 0 W/m 0,0 km/h (0 Bft)
17.05.2013 01:42 9,1 C 8,4 C 97 % 998,4 hPa 0,0 l/m 0 min 0 min 0,0 UV-I 0 W/m 0,0 km/h (0 Bft)
17.05.2013 01:44 9,1 C 8,4 C 97 % 998,5 hPa 0,0 l/m 0 min 0 min 0,0 UV-I 0 W/m 0,0 km/h (0 Bft)
17.05.2013 01:46 9,0 C 8,4 C 97 % 998,5 hPa 0,0 l/m 0 min 0 min 0,0 UV-I 0 W/m 0,0 km/h (0 Bft)
17.05.2013 01:48 9,0 C 8,4 C 97 % 998,5 hPa 0,0 l/m 0 min 0 min 0,0 UV-I 0 W/m 2,6 km/h (1 Bft)
17.05.2013 01:50 9,0 C 8,4 C 97 % 998,4 hPa 0,0 l/m 0 min 0 min 0,0 UV-I 0 W/m 0,0 km/h (0 Bft)
17.05.2013 01:52 9,0 C 8,4 C 97 % 998,4 hPa 0,0 l/m 0 min 0 min 0,0 UV-I 0 W/m 7,7 km/h (2 Bft)
17.05.2013 01:54 9,0 C 8,4 C 97 % 998,4 hPa 0,0 l/m 0 min 0 min 0,0 UV-I 0 W/m 0,0 km/h (0 Bft)
17.05.2013 01:56 9,0 C 8,4 C 97 % 998,5 hPa 0,0 l/m 0 min 0 min 0,0 UV-I 0 W/m 5,1 km/h (1 Bft)
17.05.2013 01:58 9,0 C 8,4 C 97 % 998,5 hPa 0,0 l/m 0 min 0 min 0,0 UV-I 0 W/m 2,6 km/h (1 Bft)
17.05.2013 02:00 8,9 C 8,4 C 97 % 998,4 hPa 0,0 l/m 0 min 0 min 0,0 UV-I 0 W/m 0,0 km/h (0 Bft)
17.05.2013 02:02 8,9 C 8,4 C 97 % 998,4 hPa 0,0 l/m 0 min 0 min 0,0 UV-I 0 W/m 0,0 km/h (0 Bft)
17.05.2013 02:04 8,9 C 8,4 C 97 % 998,4 hPa 0,0 l/m 0 min 0 min 0,0 UV-I 0 W/m 0,0 km/h (0 Bft)
17.05.2013 02:06 8,9 C 8,4 C 97 % 998,4 hPa 0,0 l/m 0 min 0 min 0,0 UV-I 0 W/m 0,0 km/h (0 Bft)
17.05.2013 02:08 8,9 C 8,4 C 97 % 998,4 hPa 0,0 l/m 0 min 0 min 0,0 UV-I 0 W/m 0,0 km/h (0 Bft)
17.05.2013 02:10 8,9 C 8,4 C 97 % 998,3 hPa 0,0 l/m 0 min 0 min 0,0 UV-I 0 W/m 0,0 km/h (0 Bft)
17.05.2013 02:12 8,9 C 8,4 C 97 % 998,4 hPa 0,0 l/m 0 min 0 min 0,0 UV-I 0 W/m 0,0 km/h (0 Bft)
17.05.2013 02:14 8,9 C 8,4 C 97 % 998,4 hPa 0,0 l/m 0 min 0 min 0,0 UV-I 0 W/m 0,0 km/h (0 Bft)
17.05.2013 02:16 8,9 C 8,4 C 97 % 998,4 hPa 0,0 l/m 0 min 0 min 0,0 UV-I 0 W/m 0,0 km/h (0 Bft)
17.05.2013 02:18 8,9 C 8,4 C 97 % 998,3 hPa 0,0 l/m 0 min 0 min 0,0 UV-I 0 W/m 0,0 km/h (0 Bft)
17.05.2013 02:20 8,9 C 8,4 C 97 % 998,3 hPa 0,0 l/m 0 min 0 min 0,0 UV-I 0 W/m 0,0 km/h (0 Bft)
17.05.2013 02:22 8,9 C 8,4 C 97 % 998,4 hPa 0,0 l/m 0 min 0 min 0,0 UV-I 0 W/m 0,0 km/h (0 Bft)
17.05.2013 02:24 8,9 C 8,4 C 97 % 998,3 hPa 0,0 l/m 0 min 0 min 0,0 UV-I 0 W/m 2,6 km/h (1 Bft)
17.05.2013 02:26 8,9 C 8,4 C 97 % 998,4 hPa 0,0 l/m 0 min 0 min 0,0 UV-I 0 W/m 0,0 km/h (0 Bft)
17.05.2013 02:28 8,9 C 8,4 C 97 % 998,4 hPa 0,0 l/m 0 min 0 min 0,0 UV-I 0 W/m 5,1 km/h (1 Bft)
17.05.2013 02:30 8,9 C 8,4 C 97 % 998,3 hPa 0,0 l/m 0 min 0 min 0,0 UV-I 0 W/m 5,1 km/h (1 Bft)
17.05.2013 02:32 8,9 C 8,4 C 97 % 998,3 hPa 0,0 l/m 0 min 0 min 0,0 UV-I 0 W/m 5,1 km/h (1 Bft)
17.05.2013 02:34 8,9 C 8,4 C 97 % 998,4 hPa 0,0 l/m 0 min 0 min 0,0 UV-I 0 W/m 0,0 km/h (0 Bft)
17.05.2013 02:36 9,0 C 8,4 C 97 % 998,3 hPa 0,0 l/m 0 min 0 min 0,0 UV-I 0 W/m 0,0 km/h (0 Bft)
17.05.2013 02:38 8,9 C 8,4 C 97 % 998,3 hPa 0,0 l/m 0 min 0 min 0,0 UV-I 0 W/m 0,0 km/h (0 Bft)
17.05.2013 02:40 9,0 C 8,4 C 97 % 998,4 hPa 0,0 l/m 0 min 0 min 0,0 UV-I 0 W/m 0,0 km/h (0 Bft)
17.05.2013 02:42 9,0 C 8,4 C 97 % 998,4 hPa 0,0 l/m 0 min 0 min 0,0 UV-I 0 W/m 0,0 km/h (0 Bft)
17.05.2013 02:44 9,0 C 8,4 C 97 % 998,4 hPa 0,0 l/m 0 min 0 min 0,0 UV-I 0 W/m 5,1 km/h (1 Bft)
17.05.2013 02:46 9,0 C 8,4 C 97 % 998,5 hPa 0,0 l/m 0 min 0 min 0,0 UV-I 0 W/m 2,6 km/h (1 Bft)
17.05.2013 02:48 9,0 C 8,4 C 97 % 998,5 hPa 0,0 l/m 0 min 0 min 0,0 UV-I 0 W/m 0,0 km/h (0 Bft)
17.05.2013 02:50 9,0 C 8,4 C 97 % 998,6 hPa 0,0 l/m 0 min 0 min 0,0 UV-I 0 W/m 7,7 km/h (2 Bft)
17.05.2013 02:52 8,9 C 8,4 C 97 % 998,6 hPa 0,0 l/m 0 min 0 min 0,0 UV-I 0 W/m 0,0 km/h (0 Bft)
17.05.2013 02:54 9,0 C 8,4 C 97 % 998,6 hPa 0,0 l/m 0 min 0 min 0,0 UV-I 0 W/m 0,0 km/h (0 Bft)
17.05.2013 02:56 9,0 C 8,4 C 97 % 998,7 hPa 0,0 l/m 0 min 0 min 0,0 UV-I 0 W/m 0,0 km/h (0 Bft)
17.05.2013 02:58 8,9 C 8,4 C 97 % 998,7 hPa 0,0 l/m 0 min 0 min 0,0 UV-I 0 W/m 2,6 km/h (1 Bft)
17.05.2013 03:00 9,0 C 8,4 C 97 % 998,6 hPa 0,0 l/m 0 min 0 min 0,0 UV-I 0 W/m 0,0 km/h (0 Bft)
17.05.2013 03:02 9,0 C 8,4 C 97 % 998,7 hPa 0,0 l/m 0 min 0 min 0,0 UV-I 0 W/m 0,0 km/h (0 Bft)
17.05.2013 03:06 9,0 C 8,4 C 97 % 998,7 hPa 0,0 l/m 0 min 0 min 0,0 UV-I 0 W/m 0,0 km/h (0 Bft)
17.05.2013 03:12 9,0 C 8,4 C 97 % 998,7 hPa 0,0 l/m 0 min 0 min 0,0 UV-I 0 W/m 0,0 km/h (0 Bft)
17.05.2013 03:14 9,0 C 8,4 C 97 % 998,8 hPa 0,0 l/m 0 min 0 min 0,0 UV-I 0 W/m 0,0 km/h (0 Bft)
17.05.2013 03:16 9,0 C 8,4 C 97 % 998,6 hPa 0,0 l/m 0 min 0 min 0,0 UV-I 0 W/m 0,0 km/h (0 Bft)
17.05.2013 03:18 9,0 C 8,4 C 97 % 998,7 hPa 0,0 l/m 0 min 0 min 0,0 UV-I 0 W/m 0,0 km/h (0 Bft)
17.05.2013 03:20 8,9 C 8,4 C 97 % 998,8 hPa 0,0 l/m 0 min 0 min 0,0 UV-I 0 W/m 0,0 km/h (0 Bft)
17.05.2013 03:22 9,0 C 8,4 C 97 % 998,9 hPa 0,0 l/m 0 min 0 min 0,0 UV-I 0 W/m 0,0 km/h (0 Bft)
17.05.2013 03:24 9,0 C 8,4 C 97 % 999,0 hPa 0,0 l/m 0 min 0 min 0,0 UV-I 0 W/m 0,0 km/h (0 Bft)
17.05.2013 03:26 9,0 C 8,4 C 97 % 999,1 hPa 0,0 l/m 0 min 0 min 0,0 UV-I 0 W/m 7,7 km/h (2 Bft)
17.05.2013 03:28 8,9 C 8,4 C 97 % 999,2 hPa 0,0 l/m 0 min 0 min 0,0 UV-I 0 W/m 2,6 km/h (1 Bft)
17.05.2013 03:30 8,9 C 8,4 C 97 % 999,1 hPa 0,0 l/m 0 min 0 min 0,0 UV-I 0 W/m 0,0 km/h (0 Bft)
17.05.2013 03:32 8,9 C 8,4 C 97 % 999,2 hPa 0,0 l/m 0 min 0 min 0,0 UV-I 0 W/m 0,0 km/h (0 Bft)
17.05.2013 03:34 8,9 C 8,4 C 97 % 999,2 hPa 0,0 l/m 0 min 0 min 0,0 UV-I 0 W/m 0,0 km/h (0 Bft)
17.05.2013 03:36 8,9 C 8,4 C 97 % 999,2 hPa 0,0 l/m 0 min 0 min 0,0 UV-I 0 W/m 0,0 km/h (0 Bft)
17.05.2013 03:38 8,9 C 8,4 C 97 % 999,2 hPa 0,0 l/m 0 min 0 min 0,0 UV-I 0 W/m 5,1 km/h (1 Bft)
17.05.2013 03:40 8,9 C 8,4 C 97 % 999,2 hPa 0,0 l/m 0 min 0 min 0,0 UV-I 0 W/m 7,7 km/h (2 Bft)
17.05.2013 03:42 9,0 C 8,4 C 97 % 999,2 hPa 0,0 l/m 0 min 0 min 0,0 UV-I 0 W/m 0,0 km/h (0 Bft)
17.05.2013 03:44 8,9 C 8,4 C 97 % 999,2 hPa 0,0 l/m 0 min 0 min 0,0 UV-I 0 W/m 7,7 km/h (2 Bft)
17.05.2013 03:46 9,0 C 8,4 C 97 % 999,2 hPa 0,0 l/m 0 min 0 min 0,0 UV-I 0 W/m 5,1 km/h (1 Bft)
17.05.2013 03:48 8,9 C 8,4 C 97 % 999,3 hPa 0,0 l/m 0 min 0 min 0,0 UV-I 0 W/m 0,0 km/h (0 Bft)
17.05.2013 03:50 8,9 C 8,4 C 97 % 999,2 hPa 0,0 l/m 0 min 0 min 0,0 UV-I 0 W/m 0,0 km/h (0 Bft)
17.05.2013 03:52 8,9 C 8,4 C 97 % 999,2 hPa 0,0 l/m 0 min 0 min 0,0 UV-I 0 W/m 0,0 km/h (0 Bft)
17.05.2013 03:54 8,9 C 8,4 C 97 % 999,2 hPa 0,0 l/m 0 min 0 min 0,0 UV-I 0 W/m 0,0 km/h (0 Bft)
17.05.2013 03:56 8,9 C 8,4 C 97 % 999,3 hPa 0,0 l/m 0 min 0 min 0,0 UV-I 0 W/m 0,0 km/h (0 Bft)
17.05.2013 03:58 8,9 C 8,4 C 97 % 999,2 hPa 0,0 l/m 0 min 0 min 0,0 UV-I 0 W/m 0,0 km/h (0 Bft)
17.05.2013 04:00 8,9 C 8,4 C 97 % 999,1 hPa 0,0 l/m 0 min 0 min 0,0 UV-I 0 W/m 0,0 km/h (0 Bft)
17.05.2013 04:02 8,9 C 8,4 C 97 % 999,1 hPa 0,0 l/m 0 min 0 min 0,0 UV-I 0 W/m 0,0 km/h (0 Bft)
17.05.2013 04:04 8,9 C 8,4 C 97 % 999,1 hPa 0,0 l/m 0 min 0 min 0,0 UV-I 0 W/m 0,0 km/h (0 Bft)
17.05.2013 04:06 8,9 C 8,4 C 97 % 999,1 hPa 0,0 l/m 0 min 0 min 0,0 UV-I 0 W/m 0,0 km/h (0 Bft)
17.05.2013 04:08 8,9 C 8,4 C 97 % 999,1 hPa 0,0 l/m 0 min 0 min 0,0 UV-I 0 W/m 0,0 km/h (0 Bft)
17.05.2013 04:10 8,9 C 8,4 C 97 % 999,1 hPa 0,0 l/m 0 min 0 min 0,0 UV-I 0 W/m 0,0 km/h (0 Bft)
17.05.2013 04:12 8,9 C 8,4 C 97 % 999,2 hPa 0,0 l/m 0 min 0 min 0,0 UV-I 0 W/m 0,0 km/h (0 Bft)
17.05.2013 04:14 8,9 C 8,4 C 97 % 999,2 hPa 0,0 l/m 0 min 0 min 0,0 UV-I 0 W/m 0,0 km/h (0 Bft)
17.05.2013 04:16 8,9 C 8,4 C 97 % 999,2 hPa 0,0 l/m 0 min 0 min 0,0 UV-I 0 W/m 0,0 km/h (0 Bft)
17.05.2013 04:18 9,0 C 8,4 C 97 % 999,2 hPa 0,0 l/m 0 min 0 min 0,0 UV-I 0 W/m 0,0 km/h (0 Bft)
17.05.2013 04:20 8,9 C 8,4 C 97 % 999,2 hPa 0,0 l/m 0 min 0 min 0,0 UV-I 0 W/m 5,1 km/h (1 Bft)
17.05.2013 04:22 9,0 C 8,4 C 97 % 999,1 hPa 0,0 l/m 0 min 0 min 0,0 UV-I 0 W/m 0,0 km/h (0 Bft)
17.05.2013 04:24 8,9 C 8,4 C 97 % 999,1 hPa 0,0 l/m 0 min 0 min 0,0 UV-I 0 W/m 0,0 km/h (0 Bft)
17.05.2013 04:26 8,9 C 8,4 C 97 % 999,1 hPa 0,0 l/m 0 min 0 min 0,0 UV-I 0 W/m 0,0 km/h (0 Bft)
17.05.2013 04:28 8,9 C 8,4 C 97 % 999,1 hPa 0,0 l/m 0 min 0 min 0,0 UV-I 0 W/m 0,0 km/h (0 Bft)
17.05.2013 04:30 8,9 C 8,4 C 97 % 999,1 hPa 0,0 l/m 0 min 0 min 0,0 UV-I 0 W/m 0,0 km/h (0 Bft)
17.05.2013 04:32 8,9 C 8,4 C 97 % 999,2 hPa 0,0 l/m 0 min 0 min 0,0 UV-I 0 W/m 5,1 km/h (1 Bft)
17.05.2013 04:34 8,9 C 8,4 C 97 % 999,1 hPa 0,0 l/m 0 min 0 min 0,0 UV-I 0 W/m 7,7 km/h (2 Bft)
17.05.2013 04:36 8,9 C 8,4 C 97 % 999,1 hPa 0,0 l/m 0 min 0 min 0,0 UV-I 0 W/m 2,6 km/h (1 Bft)
17.05.2013 04:38 8,9 C 8,4 C 97 % 999,0 hPa 0,0 l/m 0 min 0 min 0,0 UV-I 0 W/m 0,0 km/h (0 Bft)
17.05.2013 04:40 8,9 C 8,4 C 97 % 999,1 hPa 0,0 l/m 0 min 0 min 0,0 UV-I 0 W/m 0,0 km/h (0 Bft)
17.05.2013 04:42 8,9 C 8,4 C 97 % 999,1 hPa 0,0 l/m 0 min 0 min 0,0 UV-I 0 W/m 0,0 km/h (0 Bft)
17.05.2013 04:44 8,9 C 8,4 C 97 % 999,1 hPa 0,0 l/m 0 min 0 min 0,0 UV-I 0 W/m 0,0 km/h (0 Bft)
17.05.2013 04:46 8,9 C 8,4 C 97 % 999,1 hPa 0,0 l/m 0 min 0 min 0,0 UV-I 0 W/m 5,1 km/h (1 Bft)
17.05.2013 04:48 8,9 C 8,4 C 97 % 999,1 hPa 0,0 l/m 0 min 0 min 0,0 UV-I 0 W/m 2,6 km/h (1 Bft)
17.05.2013 04:50 8,9 C 8,4 C 97 % 999,2 hPa 0,0 l/m 0 min 0 min 0,0 UV-I 0 W/m 0,0 km/h (0 Bft)
17.05.2013 04:52 8,9 C 8,4 C 97 % 999,2 hPa 0,0 l/m 0 min 0 min 0,0 UV-I 0 W/m 0,0 km/h (0 Bft)
17.05.2013 04:54 8,9 C 8,4 C 97 % 999,2 hPa 0,0 l/m 0 min 0 min 0,0 UV-I 0 W/m 5,1 km/h (1 Bft)
17.05.2013 04:56 8,9 C 8,4 C 97 % 999,4 hPa 0,0 l/m 0 min 0 min 0,0 UV-I 0 W/m 2,6 km/h (1 Bft)
17.05.2013 04:58 8,9 C 8,4 C 97 % 999,2 hPa 0,0 l/m 0 min 0 min 0,0 UV-I 0 W/m 10,3 km/h (2 Bft)
17.05.2013 05:00 8,9 C 8,4 C 97 % 999,2 hPa 0,0 l/m 0 min 0 min 0,0 UV-I 0 W/m 0,0 km/h (0 Bft)
17.05.2013 05:02 8,9 C 8,4 C 97 % 999,2 hPa 0,0 l/m 0 min 0 min 0,0 UV-I 0 W/m 0,0 km/h (0 Bft)
17.05.2013 05:04 8,9 C 8,4 C 98 % 999,2 hPa 0,0 l/m 0 min 0 min 0,0 UV-I 0 W/m 5,1 km/h (1 Bft)
17.05.2013 05:06 8,9 C 8,4 C 98 % 999,3 hPa 0,0 l/m 0 min 0 min 0,0 UV-I 0 W/m 0,0 km/h (0 Bft)
17.05.2013 05:08 8,9 C 8,4 C 98 % 999,4 hPa 0,0 l/m 0 min 0 min 0,0 UV-I 0 W/m 0,0 km/h (0 Bft)
17.05.2013 05:10 8,9 C 8,4 C 98 % 999,5 hPa 0,0 l/m 0 min 0 min 0,0 UV-I 0 W/m 0,0 km/h (0 Bft)
17.05.2013 05:12 8,9 C 8,4 C 98 % 999,5 hPa 0,0 l/m 0 min 0 min 0,0 UV-I 0 W/m 0,0 km/h (0 Bft)
17.05.2013 05:14 8,9 C 8,4 C 98 % 999,4 hPa 0,0 l/m 0 min 0 min 0,0 UV-I 0 W/m 0,0 km/h (0 Bft)
17.05.2013 05:16 8,8 C 8,4 C 98 % 999,4 hPa 0,0 l/m 0 min 0 min 0,0 UV-I 0 W/m 0,0 km/h (0 Bft)
17.05.2013 05:18 8,8 C 8,4 C 98 % 999,2 hPa 0,0 l/m 0 min 0 min 0,0 UV-I 0 W/m 0,0 km/h (0 Bft)
17.05.2013 05:20 8,8 C 8,4 C 98 % 999,3 hPa 0,0 l/m 0 min 0 min 0,0 UV-I 0 W/m 0,0 km/h (0 Bft)
17.05.2013 05:22 8,8 C 8,4 C 98 % 999,2 hPa 0,0 l/m 0 min 0 min 0,0 UV-I 0 W/m 2,6 km/h (1 Bft)
17.05.2013 05:24 8,8 C 8,4 C 98 % 999,2 hPa 0,0 l/m 0 min 0 min 0,0 UV-I 0 W/m 0,0 km/h (0 Bft)
17.05.2013 05:26 8,8 C 8,4 C 98 % 999,3 hPa 0,0 l/m 0 min 0 min 0,0 UV-I 0 W/m 7,7 km/h (2 Bft)
17.05.2013 05:28 8,8 C 8,4 C 98 % 999,3 hPa 0,0 l/m 0 min 0 min 0,0 UV-I 0 W/m 0,0 km/h (0 Bft)
17.05.2013 05:30 8,8 C 7,9 C 98 % 999,4 hPa 0,0 l/m 0 min 0 min 0,0 UV-I 0 W/m 0,0 km/h (0 Bft)
17.05.2013 05:32 8,8 C 8,4 C 98 % 999,4 hPa 0,0 l/m 0 min 0 min 0,0 UV-I 0 W/m 0,0 km/h (0 Bft)
17.05.2013 05:34 8,8 C 8,4 C 98 % 999,5 hPa 0,0 l/m 0 min 0 min 0,0 UV-I 0 W/m 5,1 km/h (1 Bft)
17.05.2013 05:36 8,8 C 8,4 C 98 % 999,5 hPa 0,0 l/m 0 min 0 min 0,0 UV-I 0 W/m 0,0 km/h (0 Bft)
17.05.2013 05:38 8,8 C 8,4 C 98 % 999,6 hPa 0,0 l/m 0 min 0 min 0,0 UV-I 0 W/m 0,0 km/h (0 Bft)
17.05.2013 05:40 8,8 C 8,4 C 98 % 999,6 hPa 0,0 l/m 0 min 0 min 0,0 UV-I 0 W/m 0,0 km/h (0 Bft)
17.05.2013 05:42 8,8 C 8,4 C 98 % 999,6 hPa 0,0 l/m 0 min 0 min 0,0 UV-I 0 W/m 0,0 km/h (0 Bft)
17.05.2013 05:44 8,8 C 8,4 C 98 % 999,7 hPa 0,0 l/m 0 min 0 min 0,0 UV-I 0 W/m 0,0 km/h (0 Bft)
17.05.2013 05:46 8,8 C 8,4 C 98 % 999,6 hPa 0,0 l/m 0 min 0 min 0,0 UV-I 0 W/m 0,0 km/h (0 Bft)
17.05.2013 05:48 8,8 C 8,4 C 98 % 999,7 hPa 0,0 l/m 0 min 0 min 0,0 UV-I 0 W/m 0,0 km/h (0 Bft)
17.05.2013 05:50 8,8 C 8,4 C 98 % 999,7 hPa 0,0 l/m 0 min 0 min 0,0 UV-I 0 W/m 10,3 km/h (2 Bft)
17.05.2013 05:52 8,8 C 8,4 C 98 % 999,7 hPa 0,0 l/m 0 min 0 min 0,0 UV-I 0 W/m 5,1 km/h (1 Bft)
17.05.2013 05:54 8,8 C 7,9 C 98 % 999,7 hPa 0,0 l/m 0 min 0 min 0,0 UV-I 0 W/m 0,0 km/h (0 Bft)
17.05.2013 05:56 8,8 C 8,4 C 98 % 999,7 hPa 0,0 l/m 0 min 0 min 0,0 UV-I 0 W/m 0,0 km/h (0 Bft)
17.05.2013 05:58 8,8 C 8,4 C 98 % 999,7 hPa 0,0 l/m 0 min 0 min 0,0 UV-I 0 W/m 0,0 km/h (0 Bft)
17.05.2013 06:00 8,8 C 8,4 C 98 % 999,7 hPa 0,0 l/m 0 min 0 min 0,0 UV-I 0 W/m 0,0 km/h (0 Bft)
17.05.2013 06:02 8,8 C 8,4 C 98 % 999,7 hPa 0,0 l/m 0 min 0 min 0,0 UV-I 0 W/m 0,0 km/h (0 Bft)
17.05.2013 06:04 8,8 C 7,9 C 98 % 999,7 hPa 0,0 l/m 0 min 0 min 0,0 UV-I 0 W/m 7,7 km/h (2 Bft)
17.05.2013 06:06 8,8 C 7,9 C 98 % 999,7 hPa 0,0 l/m 0 min 0 min 0,0 UV-I 0 W/m 0,0 km/h (0 Bft)
17.05.2013 06:08 8,8 C 7,9 C 98 % 999,7 hPa 0,0 l/m 0 min 0 min 0,0 UV-I 0 W/m 0,0 km/h (0 Bft)
17.05.2013 06:10 8,8 C 7,9 C 98 % 999,6 hPa 0,0 l/m 0 min 0 min 0,0 UV-I 0 W/m 0,0 km/h (0 Bft)
17.05.2013 06:12 8,8 C 8,4 C 98 % 999,7 hPa 0,0 l/m 0 min 0 min 0,0 UV-I 0 W/m 0,0 km/h (0 Bft)
17.05.2013 06:14 8,8 C 8,4 C 98 % 999,7 hPa 0,0 l/m 0 min 0 min 0,0 UV-I 5 W/m 0,0 km/h (0 Bft)
17.05.2013 06:16 8,8 C 7,9 C 98 % 999,7 hPa 0,0 l/m 0 min 0 min 0,0 UV-I 5 W/m 0,0 km/h (0 Bft)
17.05.2013 06:18 8,8 C 7,9 C 98 % 999,7 hPa 0,0 l/m 0 min 0 min 0,0 UV-I 5 W/m 0,0 km/h (0 Bft)
17.05.2013 06:20 8,8 C 8,4 C 98 % 999,7 hPa 0,0 l/m 0 min 0 min 0,0 UV-I 5 W/m 0,0 km/h (0 Bft)
17.05.2013 06:22 8,8 C 7,9 C 98 % 999,8 hPa 0,0 l/m 0 min 0 min 0,0 UV-I 7 W/m 7,7 km/h (2 Bft)
17.05.2013 06:24 8,8 C 7,9 C 98 % 999,8 hPa 0,0 l/m 0 min 0 min 0,0 UV-I 7 W/m 0,0 km/h (0 Bft)
17.05.2013 06:26 8,8 C 7,9 C 98 % 999,8 hPa 0,0 l/m 0 min 2 min 0,0 UV-I 7 W/m 2,6 km/h (1 Bft)
17.05.2013 06:28 8,8 C 7,9 C 98 % 999,8 hPa 0,0 l/m 0 min 2 min 0,0 UV-I 9 W/m 2,6 km/h (1 Bft)
17.05.2013 06:30 8,8 C 7,9 C 98 % 999,7 hPa 0,0 l/m 0 min 2 min 0,0 UV-I 9 W/m 0,0 km/h (0 Bft)
17.05.2013 06:32 8,8 C 7,9 C 98 % 999,7 hPa 0,0 l/m 0 min 2 min 0,0 UV-I 7 W/m 5,1 km/h (1 Bft)
17.05.2013 06:34 8,8 C 7,9 C 98 % 999,8 hPa 0,0 l/m 0 min 2 min 0,0 UV-I 7 W/m 10,3 km/h (2 Bft)
17.05.2013 06:36 8,8 C 7,9 C 98 % 999,8 hPa 0,0 l/m 0 min 2 min 0,0 UV-I 7 W/m 0,0 km/h (0 Bft)
17.05.2013 06:38 8,8 C 7,9 C 98 % 999,8 hPa 0,0 l/m 0 min 0 min 0,0 UV-I 7 W/m 0,0 km/h (0 Bft)
17.05.2013 06:40 8,8 C 7,9 C 98 % 999,8 hPa 0,0 l/m 0 min 0 min 0,0 UV-I 7 W/m 2,6 km/h (1 Bft)
17.05.2013 06:42 8,8 C 7,9 C 98 % 999,8 hPa 0,0 l/m 0 min 0 min 0,0 UV-I 5 W/m 0,0 km/h (0 Bft)
17.05.2013 06:44 8,8 C 7,9 C 98 % 999,9 hPa 0,0 l/m 0 min 0 min 0,0 UV-I 5 W/m 2,6 km/h (1 Bft)
17.05.2013 06:46 8,8 C 7,9 C 98 % 999,9 hPa 0,0 l/m 0 min 0 min 0,0 UV-I 7 W/m 0,0 km/h (0 Bft)
17.05.2013 06:48 8,8 C 7,9 C 98 % 999,9 hPa 0,0 l/m 0 min 0 min 0,0 UV-I 7 W/m 0,0 km/h (0 Bft)
17.05.2013 06:50 8,8 C 7,9 C 98 % 1000,1 hPa 0,0 l/m 0 min 0 min 0,0 UV-I 9 W/m 7,7 km/h (2 Bft)
17.05.2013 06:52 8,8 C 7,9 C 98 % 1000,1 hPa 0,0 l/m 0 min 0 min 0,0 UV-I 9 W/m 5,1 km/h (1 Bft)
17.05.2013 06:54 8,8 C 7,9 C 98 % 999,9 hPa 0,0 l/m 0 min 0 min 0,0 UV-I 11 W/m 7,7 km/h (2 Bft)
17.05.2013 06:56 8,8 C 7,9 C 98 % 999,9 hPa 0,0 l/m 0 min 0 min 0,0 UV-I 14 W/m 10,3 km/h (2 Bft)
17.05.2013 06:58 8,8 C 7,9 C 98 % 999,8 hPa 0,0 l/m 0 min 0 min 0,0 UV-I 16 W/m 7,7 km/h (2 Bft)
17.05.2013 07:00 8,8 C 7,9 C 98 % 999,9 hPa 0,0 l/m 0 min 0 min 0,0 UV-I 16 W/m 0,0 km/h (0 Bft)
17.05.2013 07:02 8,8 C 8,4 C 98 % 999,9 hPa 0,0 l/m 0 min 0 min 0,0 UV-I 16 W/m 5,1 km/h (1 Bft)
17.05.2013 07:04 8,8 C 8,4 C 98 % 999,9 hPa 0,0 l/m 0 min 0 min 0,0 UV-I 18 W/m 10,3 km/h (2 Bft)
17.05.2013 07:06 8,8 C 8,4 C 98 % 999,9 hPa 0,0 l/m 0 min 0 min 0,0 UV-I 18 W/m 2,6 km/h (1 Bft)
17.05.2013 07:08 8,8 C 8,4 C 98 % 1000,0 hPa 0,0 l/m 0 min 0 min 0,0 UV-I 18 W/m 0,0 km/h (0 Bft)
17.05.2013 07:10 8,8 C 8,4 C 98 % 1000,0 hPa 0,0 l/m 0 min 0 min 0,0 UV-I 18 W/m 0,0 km/h (0 Bft)
17.05.2013 07:12 8,8 C 8,4 C 98 % 1000,0 hPa 0,0 l/m 0 min 0 min 0,0 UV-I 18 W/m 2,6 km/h (1 Bft)
17.05.2013 07:14 8,8 C 8,4 C 98 % 1000,0 hPa 0,0 l/m 0 min 0 min 0,0 UV-I 18 W/m 7,7 km/h (2 Bft)
17.05.2013 07:16 8,8 C 8,4 C 98 % 1000,0 hPa 0,0 l/m 0 min 0 min 0,0 UV-I 18 W/m 0,0 km/h (0 Bft)
17.05.2013 07:18 8,8 C 8,4 C 98 % 1000,0 hPa 0,0 l/m 0 min 0 min 0,0 UV-I 16 W/m 2,6 km/h (1 Bft)
17.05.2013 07:20 8,9 C 8,4 C 98 % 1000,0 hPa 0,0 l/m 0 min 0 min 0,0 UV-I 18 W/m 2,6 km/h (1 Bft)
17.05.2013 07:22 8,9 C 8,4 C 98 % 1000,0 hPa 0,0 l/m 0 min 0 min 0,0 UV-I 19 W/m 2,6 km/h (1 Bft)
17.05.2013 07:24 8,9 C 8,4 C 98 % 1000,2 hPa 0,0 l/m 0 min 0 min 0,0 UV-I 25 W/m 10,3 km/h (2 Bft)
17.05.2013 07:26 8,9 C 8,4 C 98 % 1000,3 hPa 0,0 l/m 0 min 0 min 0,0 UV-I 23 W/m 5,1 km/h (1 Bft)
17.05.2013 07:28 8,9 C 8,4 C 98 % 1000,4 hPa 0,0 l/m 0 min 0 min 0,0 UV-I 23 W/m 7,7 km/h (2 Bft)
17.05.2013 07:30 8,9 C 8,4 C 98 % 1000,4 hPa 0,0 l/m 0 min 0 min 0,0 UV-I 21 W/m 10,3 km/h (2 Bft)
17.05.2013 07:32 8,9 C 8,4 C 98 % 1000,3 hPa 0,0 l/m 0 min 0 min 0,0 UV-I 23 W/m 0,0 km/h (0 Bft)
17.05.2013 07:34 8,9 C 8,4 C 98 % 1000,2 hPa 0,0 l/m 0 min 0 min 0,0 UV-I 21 W/m 5,1 km/h (1 Bft)
17.05.2013 07:36 8,9 C 8,4 C 98 % 1000,2 hPa 0,0 l/m 0 min 0 min 0,0 UV-I 18 W/m 10,3 km/h (2 Bft)
17.05.2013 07:38 8,9 C 8,4 C 98 % 1000,1 hPa 0,0 l/m 0 min 0 min 0,0 UV-I 16 W/m 7,7 km/h (2 Bft)
17.05.2013 07:40 8,9 C 8,4 C 98 % 1000,2 hPa 0,0 l/m 0 min 0 min 0,0 UV-I 18 W/m 5,1 km/h (1 Bft)
17.05.2013 07:42 8,9 C 8,4 C 98 % 1000,4 hPa 0,0 l/m 0 min 0 min 0,0 UV-I 21 W/m 2,6 km/h (1 Bft)
17.05.2013 07:44 8,9 C 8,4 C 98 % 1000,3 hPa 0,0 l/m 0 min 0 min 0,0 UV-I 26 W/m 0,0 km/h (0 Bft)
17.05.2013 07:46 8,9 C 8,4 C 98 % 1000,3 hPa 0,0 l/m 0 min 0 min 0,0 UV-I 26 W/m 2,6 km/h (1 Bft)
17.05.2013 07:48 8,9 C 8,4 C 98 % 1000,4 hPa 0,0 l/m 0 min 0 min 0,0 UV-I 32 W/m 10,3 km/h (2 Bft)
17.05.2013 07:50 8,9 C 8,4 C 98 % 1000,4 hPa 0,0 l/m 0 min 0 min 0,0 UV-I 30 W/m 7,7 km/h (2 Bft)
17.05.2013 07:52 8,9 C 8,4 C 98 % 1000,5 hPa 0,0 l/m 0 min 0 min 0,0 UV-I 33 W/m 0,0 km/h (0 Bft)
17.05.2013 07:54 8,9 C 8,4 C 99 % 1000,5 hPa 0,0 l/m 0 min 0 min 0,0 UV-I 37 W/m 0,0 km/h (0 Bft)
17.05.2013 07:56 9,0 C 8,4 C 99 % 1000,5 hPa 0,0 l/m 0 min 0 min 0,0 UV-I 44 W/m 5,1 km/h (1 Bft)
17.05.2013 07:58 9,0 C 8,4 C 99 % 1000,4 hPa 0,0 l/m 0 min 0 min 0,0 UV-I 44 W/m 0,0 km/h (0 Bft)
17.05.2013 08:00 9,0 C 8,4 C 99 % 1000,4 hPa 0,0 l/m 0 min 0 min 0,0 UV-I 46 W/m 0,0 km/h (0 Bft)
17.05.2013 08:02 9,0 C 8,4 C 99 % 1000,3 hPa 0,0 l/m 0 min 0 min 0,0 UV-I 40 W/m 5,1 km/h (1 Bft)
17.05.2013 08:04 9,0 C 8,4 C 99 % 1000,3 hPa 0,0 l/m 0 min 0 min 0,0 UV-I 42 W/m 0,0 km/h (0 Bft)
17.05.2013 08:06 9,1 C 8,4 C 99 % 1000,4 hPa 0,0 l/m 0 min 0 min 0,0 UV-I 49 W/m 2,6 km/h (1 Bft)
17.05.2013 08:08 9,1 C 8,4 C 99 % 1000,4 hPa 0,0 l/m 0 min 0 min 0,0 UV-I 53 W/m 0,0 km/h (0 Bft)
17.05.2013 08:10 9,1 C 9,0 C 99 % 1000,3 hPa 0,0 l/m 0 min 0 min 0,0 UV-I 54 W/m 0,0 km/h (0 Bft)
17.05.2013 08:12 9,1 C 9,0 C 99 % 1000,3 hPa 0,0 l/m 0 min 0 min 0,0 UV-I 51 W/m 0,0 km/h (0 Bft)
17.05.2013 08:14 9,1 C 9,0 C 99 % 1000,4 hPa 0,0 l/m 0 min 0 min 0,0 UV-I 44 W/m 7,7 km/h (2 Bft)
17.05.2013 08:16 9,2 C 9,0 C 99 % 1000,4 hPa 0,0 l/m 0 min 0 min 0,0 UV-I 39 W/m 5,1 km/h (1 Bft)
17.05.2013 08:18 9,2 C 9,0 C 99 % 1000,5 hPa 0,0 l/m 0 min 0 min 0,0 UV-I 32 W/m 0,0 km/h (0 Bft)
17.05.2013 08:20 9,2 C 9,0 C 99 % 1000,5 hPa 0,0 l/m 0 min 0 min 0,0 UV-I 40 W/m 0,0 km/h (0 Bft)
17.05.2013 08:22 9,2 C 9,0 C 99 % 1000,6 hPa 0,0 l/m 0 min 0 min 0,0 UV-I 51 W/m 0,0 km/h (0 Bft)
17.05.2013 08:24 9,2 C 9,0 C 99 % 1000,5 hPa 0,0 l/m 0 min 0 min 0,0 UV-I 47 W/m 5,1 km/h (1 Bft)
17.05.2013 08:26 9,2 C 9,0 C 99 % 1000,4 hPa 0,0 l/m 0 min 0 min 0,0 UV-I 54 W/m 7,7 km/h (2 Bft)
17.05.2013 08:28 9,3 C 9,0 C 99 % 1000,4 hPa 0,0 l/m 0 min 0 min 0,0 UV-I 49 W/m 7,7 km/h (2 Bft)
17.05.2013 08:30 9,3 C 9,0 C 99 % 1000,5 hPa 0,0 l/m 0 min 0 min 0,0 UV-I 42 W/m 5,1 km/h (1 Bft)
17.05.2013 08:32 9,3 C 9,0 C 99 % 1000,5 hPa 0,0 l/m 0 min 0 min 0,0 UV-I 39 W/m 0,0 km/h (0 Bft)
17.05.2013 08:34 9,3 C 9,0 C 99 % 1000,5 hPa 0,0 l/m 0 min 0 min 0,0 UV-I 39 W/m 2,6 km/h (1 Bft)
17.05.2013 08:36 9,3 C 9,0 C 99 % 1000,5 hPa 0,0 l/m 0 min 0 min 0,0 UV-I 37 W/m 2,6 km/h (1 Bft)
17.05.2013 08:38 9,3 C 8,4 C 99 % 1000,5 hPa 0,0 l/m 0 min 0 min 0,0 UV-I 35 W/m 15,4 km/h (3 Bft)
17.05.2013 08:40 9,3 C 8,4 C 99 % 1000,5 hPa 0,0 l/m 0 min 0 min 0,0 UV-I 39 W/m 5,1 km/h (1 Bft)
17.05.2013 08:42 9,3 C 9,0 C 99 % 1000,5 hPa 0,0 l/m 0 min 0 min 0,0 UV-I 39 W/m 0,0 km/h (0 Bft)
17.05.2013 08:44 9,3 C 8,4 C 99 % 1000,5 hPa 0,0 l/m 0 min 0 min 0,0 UV-I 37 W/m 7,7 km/h (2 Bft)
17.05.2013 08:46 9,3 C 8,4 C 99 % 1000,5 hPa 0,0 l/m 0 min 0 min 0,0 UV-I 40 W/m 2,6 km/h (1 Bft)
17.05.2013 08:48 9,3 C 9,0 C 99 % 1000,4 hPa 0,0 l/m 0 min 0 min 0,0 UV-I 51 W/m 0,0 km/h (0 Bft)
17.05.2013 08:50 9,3 C 8,4 C 99 % 1000,4 hPa 0,0 l/m 0 min 0 min 0,0 UV-I 49 W/m 2,6 km/h (1 Bft)
17.05.2013 08:52 9,3 C 9,0 C 99 % 1000,4 hPa 0,0 l/m 0 min 0 min 0,0 UV-I 49 W/m 0,0 km/h (0 Bft)
17.05.2013 08:54 9,3 C 9,0 C 99 % 1000,4 hPa 0,0 l/m 0 min 0 min 0,0 UV-I 49 W/m 5,1 km/h (1 Bft)
17.05.2013 08:56 9,3 C 9,0 C 99 % 1000,5 hPa 0,0 l/m 0 min 0 min 0,0 UV-I 47 W/m 5,1 km/h (1 Bft)
17.05.2013 08:58 9,3 C 9,0 C 99 % 1000,4 hPa 0,0 l/m 0 min 0 min 0,0 UV-I 44 W/m 2,6 km/h (1 Bft)
17.05.2013 09:00 9,3 C 9,0 C 99 % 1000,5 hPa 0,0 l/m 0 min 0 min 0,0 UV-I 47 W/m 7,7 km/h (2 Bft)
17.05.2013 09:02 9,3 C 9,0 C 99 % 1000,5 hPa 0,0 l/m 0 min 0 min 0,0 UV-I 58 W/m 0,0 km/h (0 Bft)
17.05.2013 09:04 9,3 C 9,0 C 99 % 1000,5 hPa 0,0 l/m 0 min 0 min 0,0 UV-I 65 W/m 5,1 km/h (1 Bft)
17.05.2013 09:06 9,3 C 9,0 C 99 % 1000,6 hPa 0,0 l/m 0 min 0 min 0,0 UV-I 69 W/m 10,3 km/h (2 Bft)
17.05.2013 09:08 9,3 C 9,0 C 99 % 1000,6 hPa 0,0 l/m 0 min 0 min 0,0 UV-I 69 W/m 0,0 km/h (0 Bft)
17.05.2013 09:10 9,3 C 9,0 C 99 % 1000,7 hPa 0,0 l/m 0 min 0 min 0,0 UV-I 56 W/m 5,1 km/h (1 Bft)
17.05.2013 09:12 9,3 C 9,0 C 99 % 1000,7 hPa 0,0 l/m 0 min 0 min 0,0 UV-I 49 W/m 0,0 km/h (0 Bft)
17.05.2013 09:14 9,3 C 9,0 C 99 % 1000,8 hPa 0,0 l/m 0 min 0 min 0,0 UV-I 49 W/m 5,1 km/h (1 Bft)
17.05.2013 09:16 9,3 C 9,0 C 99 % 1000,8 hPa 0,0 l/m 0 min 0 min 0,0 UV-I 60 W/m 0,0 km/h (0 Bft)
17.05.2013 09:18 9,4 C 9,0 C 99 % 1000,9 hPa 0,0 l/m 0 min 0 min 0,0 UV-I 53 W/m 0,0 km/h (0 Bft)
17.05.2013 09:20 9,4 C 9,0 C 99 % 1000,9 hPa 0,0 l/m 0 min 0 min 0,0 UV-I 53 W/m 0,0 km/h (0 Bft)
17.05.2013 09:22 9,3 C 9,0 C 99 % 1000,9 hPa 0,0 l/m 0 min 0 min 0,0 UV-I 49 W/m 2,6 km/h (1 Bft)
17.05.2013 09:24 9,4 C 9,0 C 99 % 1000,9 hPa 0,0 l/m 0 min 0 min 0,0 UV-I 53 W/m 7,7 km/h (2 Bft)
17.05.2013 09:26 9,3 C 9,0 C 99 % 1001,0 hPa 0,0 l/m 0 min 0 min 0,0 UV-I 67 W/m 2,6 km/h (1 Bft)
17.05.2013 09:28 9,3 C 9,0 C 99 % 1001,1 hPa 0,0 l/m 0 min 0 min 0,0 UV-I 76 W/m 2,6 km/h (1 Bft)
17.05.2013 09:30 9,3 C 9,0 C 99 % 1001,1 hPa 0,0 l/m 0 min 0 min 0,0 UV-I 65 W/m 0,0 km/h (0 Bft)
17.05.2013 09:32 9,3 C 9,0 C 99 % 1001,1 hPa 0,0 l/m 0 min 0 min 0,0 UV-I 51 W/m 5,1 km/h (1 Bft)
17.05.2013 09:34 9,4 C 9,0 C 99 % 1001,3 hPa 0,0 l/m 0 min 0 min 0,0 UV-I 53 W/m 7,7 km/h (2 Bft)
17.05.2013 09:36 9,4 C 9,0 C 99 % 1001,3 hPa 0,0 l/m 0 min 0 min 0,0 UV-I 49 W/m 5,1 km/h (1 Bft)
17.05.2013 09:38 9,3 C 9,0 C 99 % 1001,4 hPa 0,0 l/m 0 min 0 min 0,0 UV-I 54 W/m 0,0 km/h (0 Bft)
17.05.2013 09:40 9,4 C 9,0 C 99 % 1001,2 hPa 0,0 l/m 0 min 0 min 0,0 UV-I 67 W/m 0,0 km/h (0 Bft)
17.05.2013 09:42 9,4 C 9,0 C 99 % 1001,2 hPa 0,0 l/m 0 min 0 min 0,0 UV-I 53 W/m 5,1 km/h (1 Bft)
17.05.2013 09:44 9,4 C 9,0 C 99 % 1001,2 hPa 0,0 l/m 0 min 0 min 0,0 UV-I 49 W/m 0,0 km/h (0 Bft)
17.05.2013 09:46 9,4 C 9,0 C 99 % 1001,2 hPa 0,0 l/m 0 min 0 min 0,0 UV-I 46 W/m 0,0 km/h (0 Bft)
17.05.2013 09:48 9,4 C 9,0 C 99 % 1001,3 hPa 0,0 l/m 0 min 0 min 0,0 UV-I 56 W/m 0,0 km/h (0 Bft)
17.05.2013 09:50 9,4 C 9,0 C 99 % 1001,2 hPa 0,0 l/m 0 min 0 min 0,0 UV-I 74 W/m 5,1 km/h (1 Bft)
17.05.2013 09:52 9,4 C 9,0 C 99 % 1001,2 hPa 0,0 l/m 0 min 0 min 0,0 UV-I 90 W/m 0,0 km/h (0 Bft)
17.05.2013 09:54 9,4 C 9,0 C 99 % 1001,2 hPa 0,0 l/m 0 min 0 min 0,0 UV-I 93 W/m 0,0 km/h (0 Bft)
17.05.2013 09:56 9,4 C 9,0 C 99 % 1001,2 hPa 0,0 l/m 0 min 0 min 0,0 UV-I 90 W/m 7,7 km/h (2 Bft)
17.05.2013 09:58 9,4 C 9,0 C 99 % 1001,3 hPa 0,0 l/m 0 min 0 min 0,0 UV-I 77 W/m 2,6 km/h (1 Bft)
17.05.2013 10:00 9,4 C 9,0 C 99 % 1001,3 hPa 0,0 l/m 0 min 0 min 0,0 UV-I 81 W/m 0,0 km/h (0 Bft)
17.05.2013 10:02 9,4 C 9,0 C 99 % 1001,3 hPa 0,0 l/m 0 min 0 min 0,0 UV-I 81 W/m 7,7 km/h (2 Bft)
17.05.2013 10:04 9,4 C 9,0 C 99 % 1001,3 hPa 0,0 l/m 0 min 0 min 0,0 UV-I 72 W/m 0,0 km/h (0 Bft)
17.05.2013 10:06 9,4 C 9,0 C 99 % 1001,3 hPa 0,0 l/m 0 min 0 min 0,0 UV-I 76 W/m 10,3 km/h (2 Bft)
17.05.2013 10:08 9,4 C 9,0 C 99 % 1001,3 hPa 0,0 l/m 0 min 0 min 0,0 UV-I 83 W/m 7,7 km/h (2 Bft)
17.05.2013 10:10 9,4 C 9,0 C 99 % 1001,3 hPa 0,0 l/m 0 min 0 min 0,0 UV-I 104 W/m 0,0 km/h (0 Bft)
17.05.2013 10:12 9,4 C 9,0 C 99 % 1001,2 hPa 0,0 l/m 0 min 0 min 0,0 UV-I 102 W/m 10,3 km/h (2 Bft)
17.05.2013 10:14 9,4 C 9,6 C 99 % 1001,2 hPa 0,0 l/m 0 min 0 min 0,0 UV-I 93 W/m 0,0 km/h (0 Bft)
17.05.2013 10:16 9,4 C 9,6 C 99 % 1001,2 hPa 0,0 l/m 0 min 0 min 0,0 UV-I 90 W/m 0,0 km/h (0 Bft)
17.05.2013 10:18 9,4 C 9,0 C 99 % 1001,2 hPa 0,0 l/m 0 min 0 min 0,0 UV-I 81 W/m 10,3 km/h (2 Bft)
17.05.2013 10:20 9,4 C 9,6 C 99 % 1001,2 hPa 0,0 l/m 0 min 0 min 0,0 UV-I 83 W/m 0,0 km/h (0 Bft)
17.05.2013 10:22 9,5 C 9,6 C 99 % 1001,2 hPa 0,0 l/m 0 min 0 min 0,0 UV-I 76 W/m 0,0 km/h (0 Bft)
17.05.2013 10:24 9,5 C 9,0 C 99 % 1001,2 hPa 0,0 l/m 0 min 0 min 0,0 UV-I 72 W/m 7,7 km/h (2 Bft)
17.05.2013 10:26 9,5 C 9,0 C 99 % 1001,2 hPa 0,0 l/m 0 min 0 min 0,0 UV-I 70 W/m 10,3 km/h (2 Bft)
17.05.2013 10:28 9,5 C 9,0 C 99 % 1001,2 hPa 0,0 l/m 0 min 0 min 0,0 UV-I 70 W/m 12,9 km/h (3 Bft)
17.05.2013 10:30 9,4 C 9,0 C 99 % 1001,2 hPa 0,0 l/m 0 min 0 min 0,0 UV-I 79 W/m 15,4 km/h (3 Bft)
17.05.2013 10:32 9,4 C 9,0 C 99 % 1001,1 hPa 0,0 l/m 0 min 0 min 0,0 UV-I 97 W/m 7,7 km/h (2 Bft)
17.05.2013 10:34 9,4 C 9,6 C 99 % 1001,1 hPa 0,0 l/m 0 min 0 min 0,0 UV-I 146 W/m 0,0 km/h (0 Bft)
17.05.2013 10:36 9,4 C 9,6 C 99 % 1001,0 hPa 0,0 l/m 0 min 0 min 0,0 UV-I 123 W/m 7,7 km/h (2 Bft)
17.05.2013 10:38 9,5 C 9,6 C 99 % 1000,9 hPa 0,0 l/m 0 min 0 min 0,0 UV-I 114 W/m 15,4 km/h (3 Bft)
17.05.2013 10:40 9,5 C 9,6 C 99 % 1000,8 hPa 0,0 l/m 0 min 0 min 0,0 UV-I 105 W/m 7,7 km/h (2 Bft)
17.05.2013 10:42 9,5 C 9,6 C 99 % 1000,9 hPa 0,0 l/m 0 min 0 min 0,0 UV-I 102 W/m 7,7 km/h (2 Bft)
17.05.2013 10:44 9,6 C 9,6 C 99 % 1000,9 hPa 0,0 l/m 0 min 0 min 0,0 UV-I 121 W/m 5,1 km/h (1 Bft)
17.05.2013 10:46 9,6 C 9,6 C 99 % 1000,9 hPa 0,0 l/m 0 min 0 min 0,0 UV-I 104 W/m 12,9 km/h (3 Bft)
17.05.2013 10:48 9,6 C 9,6 C 99 % 1001,0 hPa 0,0 l/m 0 min 0 min 0,0 UV-I 100 W/m 10,3 km/h (2 Bft)
17.05.2013 10:50 9,6 C 9,6 C 99 % 1001,0 hPa 0,0 l/m 0 min 0 min 0,0 UV-I 100 W/m 0,0 km/h (0 Bft)
17.05.2013 10:52 9,7 C 9,6 C 99 % 1001,0 hPa 0,0 l/m 0 min 0 min 0,0 UV-I 95 W/m 0,0 km/h (0 Bft)
17.05.2013 10:54 9,7 C 9,6 C 99 % 1001,0 hPa 0,0 l/m 0 min 0 min 0,0 UV-I 93 W/m 7,7 km/h (2 Bft)
17.05.2013 10:56 9,7 C 9,6 C 99 % 1001,1 hPa 0,0 l/m 0 min 0 min 0,0 UV-I 90 W/m 2,6 km/h (1 Bft)
17.05.2013 10:58 9,7 C 9,6 C 99 % 1001,1 hPa 0,0 l/m 0 min 0 min 0,0 UV-I 88 W/m 5,1 km/h (1 Bft)
17.05.2013 11:00 9,7 C 9,6 C 99 % 1001,2 hPa 0,0 l/m 0 min 0 min 0,0 UV-I 81 W/m 0,0 km/h (0 Bft)
17.05.2013 11:02 9,7 C 9,6 C 99 % 1001,2 hPa 0,0 l/m 0 min 0 min 0,0 UV-I 74 W/m 7,7 km/h (2 Bft)
17.05.2013 11:04 9,8 C 9,6 C 99 % 1001,2 hPa 0,0 l/m 0 min 0 min 0,0 UV-I 65 W/m 7,7 km/h (2 Bft)
17.05.2013 11:06 9,8 C 9,6 C 99 % 1001,3 hPa 0,0 l/m 0 min 0 min 0,0 UV-I 74 W/m 2,6 km/h (1 Bft)
17.05.2013 11:08 9,7 C 9,6 C 99 % 1001,3 hPa 0,0 l/m 0 min 0 min 0,0 UV-I 74 W/m 7,7 km/h (2 Bft)
17.05.2013 11:10 9,7 C 9,6 C 99 % 1001,4 hPa 0,0 l/m 0 min 0 min 0,0 UV-I 84 W/m 5,1 km/h (1 Bft)
17.05.2013 11:12 9,7 C 9,6 C 99 % 1001,4 hPa 0,0 l/m 0 min 0 min 0,0 UV-I 86 W/m 10,3 km/h (2 Bft)
17.05.2013 11:14 9,7 C 9,6 C 99 % 1001,3 hPa 0,0 l/m 0 min 0 min 0,0 UV-I 81 W/m 5,1 km/h (1 Bft)
17.05.2013 11:16 9,7 C 9,6 C 99 % 1001,2 hPa 0,0 l/m 0 min 0 min 0,0 UV-I 79 W/m 0,0 km/h (0 Bft)
17.05.2013 11:18 9,7 C 9,6 C 98 % 1001,3 hPa 0,0 l/m 0 min 0 min 0,0 UV-I 77 W/m 7,7 km/h (2 Bft)
17.05.2013 11:20 9,7 C 9,6 C 98 % 1001,3 hPa 0,0 l/m 0 min 0 min 0,0 UV-I 88 W/m 7,7 km/h (2 Bft)
17.05.2013 11:22 9,7 C 9,6 C 98 % 1001,3 hPa 0,0 l/m 0 min 0 min 0,0 UV-I 88 W/m 2,6 km/h (1 Bft)
17.05.2013 11:24 9,7 C 9,6 C 98 % 1001,3 hPa 0,0 l/m 0 min 0 min 0,0 UV-I 90 W/m 0,0 km/h (0 Bft)
17.05.2013 11:26 9,7 C 9,6 C 98 % 1001,3 hPa 0,0 l/m 0 min 0 min 0,0 UV-I 86 W/m 10,3 km/h (2 Bft)
17.05.2013 11:28 9,7 C 9,6 C 98 % 1001,4 hPa 0,0 l/m 0 min 0 min 0,0 UV-I 81 W/m 10,3 km/h (2 Bft)
17.05.2013 11:30 9,7 C 9,6 C 98 % 1001,4 hPa 0,0 l/m 0 min 0 min 0,0 UV-I 81 W/m 7,7 km/h (2 Bft)
17.05.2013 11:32 9,7 C 9,6 C 98 % 1001,4 hPa 0,0 l/m 0 min 0 min 0,0 UV-I 63 W/m 0,0 km/h (0 Bft)
17.05.2013 11:34 9,7 C 9,6 C 98 % 1001,4 hPa 0,0 l/m 0 min 0 min 0,0 UV-I 62 W/m 7,7 km/h (2 Bft)
17.05.2013 11:36 9,7 C 9,6 C 98 % 1001,4 hPa 0,0 l/m 0 min 0 min 0,0 UV-I 63 W/m 5,1 km/h (1 Bft)
17.05.2013 11:38 9,7 C 9,6 C 98 % 1001,4 hPa 0,0 l/m 0 min 0 min 0,0 UV-I 77 W/m 2,6 km/h (1 Bft)
17.05.2013 11:40 9,8 C 9,6 C 98 % 1001,4 hPa 0,0 l/m 0 min 0 min 0,0 UV-I 72 W/m 0,0 km/h (0 Bft)
17.05.2013 11:42 9,8 C 9,6 C 98 % 1001,4 hPa 0,0 l/m 0 min 0 min 0,0 UV-I 69 W/m 0,0 km/h (0 Bft)
17.05.2013 11:44 9,8 C 9,6 C 98 % 1001,5 hPa 0,0 l/m 0 min 0 min 0,0 UV-I 67 W/m 2,6 km/h (1 Bft)
17.05.2013 11:46 9,8 C 9,6 C 98 % 1001,5 hPa 0,0 l/m 0 min 0 min 0,0 UV-I 67 W/m 7,7 km/h (2 Bft)
17.05.2013 11:48 9,8 C 9,6 C 98 % 1001,5 hPa 0,0 l/m 0 min 0 min 0,0 UV-I 84 W/m 5,1 km/h (1 Bft)
17.05.2013 11:50 9,8 C 9,6 C 98 % 1001,5 hPa 0,0 l/m 0 min 0 min 0,0 UV-I 84 W/m 5,1 km/h (1 Bft)
17.05.2013 11:52 9,8 C 9,6 C 98 % 1001,5 hPa 0,0 l/m 0 min 0 min 0,0 UV-I 65 W/m 5,1 km/h (1 Bft)
17.05.2013 11:54 9,8 C 9,6 C 98 % 1001,6 hPa 0,0 l/m 0 min 0 min 0,0 UV-I 60 W/m 0,0 km/h (0 Bft)
17.05.2013 11:56 9,8 C 9,6 C 98 % 1001,5 hPa 0,0 l/m 0 min 0 min 0,0 UV-I 60 W/m 0,0 km/h (0 Bft)
17.05.2013 11:58 9,9 C 9,6 C 98 % 1001,5 hPa 0,0 l/m 0 min 0 min 0,0 UV-I 69 W/m 0,0 km/h (0 Bft)
17.05.2013 12:00 9,9 C 9,6 C 98 % 1001,6 hPa 0,0 l/m 0 min 0 min 0,0 UV-I 77 W/m 7,7 km/h (2 Bft)
17.05.2013 12:02 9,9 C 9,6 C 98 % 1001,6 hPa 0,0 l/m 0 min 0 min 0,0 UV-I 88 W/m 2,6 km/h (1 Bft)
17.05.2013 12:04 9,9 C 9,6 C 98 % 1001,7 hPa 0,0 l/m 0 min 0 min 0,0 UV-I 100 W/m 0,0 km/h (0 Bft)
17.05.2013 12:06 9,9 C 10,1 C 98 % 1001,7 hPa 0,0 l/m 0 min 0 min 0,0 UV-I 114 W/m 5,1 km/h (1 Bft)
17.05.2013 12:08 9,9 C 10,1 C 98 % 1001,7 hPa 0,0 l/m 0 min 0 min 0,0 UV-I 165 W/m 7,7 km/h (2 Bft)
17.05.2013 12:10 9,9 C 10,1 C 98 % 1001,7 hPa 0,0 l/m 0 min 0 min 0,0 UV-I 167 W/m 10,3 km/h (2 Bft)
17.05.2013 12:12 9,9 C 10,1 C 98 % 1001,8 hPa 0,0 l/m 0 min 0 min 0,0 UV-I 153 W/m 7,7 km/h (2 Bft)
17.05.2013 12:14 9,9 C 10,1 C 98 % 1001,8 hPa 0,0 l/m 0 min 0 min 0,0 UV-I 127 W/m 5,1 km/h (1 Bft)
17.05.2013 12:16 10,0 C 10,7 C 98 % 1001,8 hPa 0,0 l/m 0 min 0 min 0,0 UV-I 88 W/m 0,0 km/h (0 Bft)
17.05.2013 12:18 10,0 C 10,1 C 98 % 1001,8 hPa 0,0 l/m 0 min 0 min 0,0 UV-I 67 W/m 10,3 km/h (2 Bft)
17.05.2013 12:20 10,0 C 10,1 C 97 % 1001,8 hPa 0,0 l/m 0 min 0 min 0,0 UV-I 63 W/m 10,3 km/h (2 Bft)
17.05.2013 12:22 10,1 C 10,1 C 97 % 1001,8 hPa 0,0 l/m 0 min 0 min 0,0 UV-I 60 W/m 2,6 km/h (1 Bft)
17.05.2013 12:24 10,1 C 10,1 C 97 % 1001,8 hPa 0,0 l/m 0 min 0 min 0,0 UV-I 62 W/m 0,0 km/h (0 Bft)
17.05.2013 12:26 10,1 C 10,1 C 97 % 1001,8 hPa 0,0 l/m 0 min 0 min 0,0 UV-I 72 W/m 0,0 km/h (0 Bft)
17.05.2013 12:28 10,1 C 10,1 C 97 % 1001,8 hPa 0,0 l/m 0 min 0 min 0,0 UV-I 84 W/m 0,0 km/h (0 Bft)
17.05.2013 12:30 10,1 C 10,1 C 98 % 1001,9 hPa 0,0 l/m 0 min 0 min 0,0 UV-I 98 W/m 0,0 km/h (0 Bft)
17.05.2013 12:32 10,1 C 10,1 C 98 % 1001,8 hPa 0,0 l/m 0 min 0 min 0,0 UV-I 105 W/m 0,0 km/h (0 Bft)
17.05.2013 12:34 10,2 C 10,1 C 98 % 1001,8 hPa 0,0 l/m 0 min 0 min 0,0 UV-I 91 W/m 5,1 km/h (1 Bft)
17.05.2013 12:36 10,2 C 10,1 C 97 % 1001,9 hPa 0,0 l/m 0 min 0 min 0,0 UV-I 79 W/m 5,1 km/h (1 Bft)
17.05.2013 12:38 10,2 C 10,1 C 97 % 1001,9 hPa 0,0 l/m 0 min 0 min 0,0 UV-I 77 W/m 18,0 km/h (3 Bft)
17.05.2013 12:40 10,2 C 10,1 C 97 % 1001,9 hPa 0,0 l/m 0 min 0 min 0,0 UV-I 65 W/m 5,1 km/h (1 Bft)
17.05.2013 12:42 10,2 C 9,6 C 97 % 1001,8 hPa 0,0 l/m 0 min 0 min 0,0 UV-I 49 W/m 7,7 km/h (2 Bft)
17.05.2013 12:44 10,1 C 9,6 C 97 % 1001,8 hPa 0,0 l/m 0 min 0 min 0,0 UV-I 62 W/m 15,4 km/h (3 Bft)
17.05.2013 12:46 10,1 C 9,6 C 97 % 1001,9 hPa 0,0 l/m 0 min 0 min 0,0 UV-I 65 W/m 10,3 km/h (2 Bft)
17.05.2013 12:48 10,1 C 9,6 C 97 % 1001,9 hPa 0,0 l/m 0 min 0 min 0,0 UV-I 77 W/m 10,3 km/h (2 Bft)
17.05.2013 12:50 10,1 C 9,6 C 97 % 1001,9 hPa 0,0 l/m 0 min 0 min 0,0 UV-I 76 W/m 7,7 km/h (2 Bft)
17.05.2013 12:52 10,1 C 9,6 C 97 % 1001,9 hPa 0,0 l/m 0 min 0 min 0,0 UV-I 74 W/m 5,1 km/h (1 Bft)
17.05.2013 12:54 10,1 C 9,6 C 97 % 1001,9 hPa 0,0 l/m 0 min 0 min 0,0 UV-I 72 W/m 5,1 km/h (1 Bft)
17.05.2013 12:56 10,1 C 9,6 C 97 % 1001,8 hPa 0,0 l/m 0 min 0 min 0,0 UV-I 83 W/m 10,3 km/h (2 Bft)
17.05.2013 12:58 10,1 C 10,1 C 97 % 1001,8 hPa 0,0 l/m 0 min 0 min 0,0 UV-I 102 W/m 7,7 km/h (2 Bft)
17.05.2013 13:00 10,1 C 10,1 C 97 % 1001,8 hPa 0,0 l/m 0 min 2 min 0,0 UV-I 107 W/m 0,0 km/h (0 Bft)
17.05.2013 13:02 10,1 C 10,1 C 97 % 1001,9 hPa 0,0 l/m 0 min 2 min 0,0 UV-I 91 W/m 2,6 km/h (1 Bft)
17.05.2013 13:04 10,2 C 10,1 C 97 % 1001,9 hPa 0,0 l/m 0 min 2 min 0,0 UV-I 97 W/m 0,0 km/h (0 Bft)
17.05.2013 13:06 10,2 C 10,1 C 97 % 1001,8 hPa 0,0 l/m 0 min 2 min 0,0 UV-I 116 W/m 2,6 km/h (1 Bft)
17.05.2013 13:08 10,3 C 10,1 C 97 % 1001,9 hPa 0,0 l/m 0 min 2 min 0,0 UV-I 111 W/m 0,0 km/h (0 Bft)
17.05.2013 13:10 10,3 C 10,1 C 97 % 1001,9 hPa 0,0 l/m 0 min 2 min 0,0 UV-I 105 W/m 0,0 km/h (0 Bft)
17.05.2013 13:12 10,3 C 9,6 C 97 % 1001,8 hPa 0,0 l/m 0 min 2 min 0,0 UV-I 125 W/m 7,7 km/h (2 Bft)
17.05.2013 13:14 10,3 C 10,1 C 97 % 1001,8 hPa 0,0 l/m 0 min 0 min 0,0 UV-I 125 W/m 0,0 km/h (0 Bft)
17.05.2013 13:16 10,4 C 10,1 C 97 % 1001,8 hPa 0,0 l/m 0 min 0 min 0,0 UV-I 128 W/m 2,6 km/h (1 Bft)
17.05.2013 13:18 10,4 C 10,1 C 97 % 1001,8 hPa 0,0 l/m 0 min 0 min 0,0 UV-I 123 W/m 5,1 km/h (1 Bft)
17.05.2013 13:20 10,4 C 10,1 C 97 % 1001,8 hPa 0,0 l/m 0 min 0 min 0,0 UV-I 132 W/m 2,6 km/h (1 Bft)
17.05.2013 13:22 10,4 C 10,1 C 97 % 1001,8 hPa 0,0 l/m 0 min 0 min 0,0 UV-I 137 W/m 0,0 km/h (0 Bft)
17.05.2013 13:24 10,4 C 10,1 C 97 % 1001,9 hPa 0,0 l/m 0 min 0 min 0,0 UV-I 111 W/m 7,7 km/h (2 Bft)
17.05.2013 13:26 10,5 C 10,1 C 97 % 1001,8 hPa 0,0 l/m 0 min 2 min 0,0 UV-I 114 W/m 0,0 km/h (0 Bft)
17.05.2013 13:28 10,6 C 10,1 C 97 % 1001,8 hPa 0,0 l/m 0 min 0 min 0,0 UV-I 109 W/m 7,7 km/h (2 Bft)
17.05.2013 13:30 10,6 C 10,1 C 97 % 1001,8 hPa 0,0 l/m 0 min 0 min 0,0 UV-I 109 W/m 5,1 km/h (1 Bft)
17.05.2013 13:32 10,6 C 10,1 C 97 % 1001,8 hPa 0,0 l/m 0 min 0 min 0,0 UV-I 100 W/m 2,6 km/h (1 Bft)
17.05.2013 13:34 10,6 C 10,1 C 97 % 1001,9 hPa 0,0 l/m 0 min 0 min 0,0 UV-I 93 W/m 2,6 km/h (1 Bft)
17.05.2013 13:36 10,6 C 10,1 C 97 % 1002,0 hPa 0,0 l/m 0 min 0 min 0,0 UV-I 90 W/m 0,0 km/h (0 Bft)
17.05.2013 13:38 10,6 C 10,1 C 97 % 1001,9 hPa 0,0 l/m 0 min 0 min 0,0 UV-I 95 W/m 0,0 km/h (0 Bft)
17.05.2013 13:40 10,6 C 10,1 C 97 % 1001,9 hPa 0,0 l/m 0 min 0 min 0,0 UV-I 91 W/m 0,0 km/h (0 Bft)
17.05.2013 13:42 10,6 C 10,1 C 97 % 1001,9 hPa 0,0 l/m 0 min 0 min 0,0 UV-I 88 W/m 0,0 km/h (0 Bft)
17.05.2013 13:44 10,6 C 10,1 C 97 % 1001,9 hPa 0,0 l/m 0 min 0 min 0,0 UV-I 81 W/m 0,0 km/h (0 Bft)
17.05.2013 13:46 10,6 C 10,1 C 96 % 1001,9 hPa 0,0 l/m 0 min 0 min 0,0 UV-I 84 W/m 2,6 km/h (1 Bft)
17.05.2013 13:48 10,7 C 10,1 C 96 % 1001,9 hPa 0,0 l/m 0 min 0 min 0,0 UV-I 98 W/m 0,0 km/h (0 Bft)
17.05.2013 13:50 10,7 C 10,1 C 96 % 1001,9 hPa 0,0 l/m 0 min 0 min 0,0 UV-I 102 W/m 5,1 km/h (1 Bft)
17.05.2013 13:52 10,7 C 10,1 C 96 % 1002,0 hPa 0,0 l/m 0 min 0 min 0,0 UV-I 104 W/m 0,0 km/h (0 Bft)
17.05.2013 13:54 10,7 C 10,1 C 96 % 1002,0 hPa 0,0 l/m 0 min 0 min 0,0 UV-I 120 W/m 0,0 km/h (0 Bft)
17.05.2013 13:56 10,7 C 10,7 C 97 % 1002,0 hPa 0,0 l/m 0 min 0 min 0,0 UV-I 114 W/m 0,0 km/h (0 Bft)
17.05.2013 13:58 10,7 C 10,1 C 96 % 1002,0 hPa 0,0 l/m 0 min 0 min 0,0 UV-I 104 W/m 5,1 km/h (1 Bft)
17.05.2013 14:00 10,7 C 10,1 C 96 % 1002,0 hPa 0,0 l/m 0 min 0 min 0,0 UV-I 100 W/m 2,6 km/h (1 Bft)
17.05.2013 14:02 10,7 C 10,1 C 96 % 1002,0 hPa 0,0 l/m 0 min 0 min 0,0 UV-I 88 W/m 5,1 km/h (1 Bft)
17.05.2013 14:04 10,7 C 10,1 C 96 % 1002,1 hPa 0,0 l/m 0 min 0 min 0,0 UV-I 63 W/m 5,1 km/h (1 Bft)
17.05.2013 14:06 10,7 C 10,1 C 96 % 1002,1 hPa 0,0 l/m 0 min 0 min 0,0 UV-I 65 W/m 7,7 km/h (2 Bft)
17.05.2013 14:08 10,7 C 10,1 C 96 % 1002,1 hPa 0,0 l/m 0 min 0 min 0,0 UV-I 67 W/m 7,7 km/h (2 Bft)
17.05.2013 14:10 10,7 C 10,1 C 96 % 1002,1 hPa 0,0 l/m 0 min 0 min 0,0 UV-I 63 W/m 12,9 km/h (3 Bft)
17.05.2013 14:12 10,7 C 10,1 C 96 % 1002,1 hPa 0,0 l/m 0 min 0 min 0,0 UV-I 58 W/m 7,7 km/h (2 Bft)
17.05.2013 14:14 10,7 C 10,1 C 96 % 1002,2 hPa 0,0 l/m 0 min 0 min 0,0 UV-I 63 W/m 0,0 km/h (0 Bft)
17.05.2013 14:16 10,7 C 10,1 C 96 % 1002,2 hPa 0,0 l/m 0 min 0 min 0,0 UV-I 56 W/m 0,0 km/h (0 Bft)
17.05.2013 14:18 10,7 C 10,1 C 96 % 1002,2 hPa 0,0 l/m 0 min 0 min 0,0 UV-I 49 W/m 5,1 km/h (1 Bft)
17.05.2013 14:20 10,7 C 10,1 C 96 % 1002,2 hPa 0,0 l/m 0 min 0 min 0,0 UV-I 46 W/m 0,0 km/h (0 Bft)
17.05.2013 14:22 10,7 C 10,1 C 96 % 1002,3 hPa 0,0 l/m 0 min 0 min 0,0 UV-I 46 W/m 0,0 km/h (0 Bft)
17.05.2013 14:24 10,7 C 10,1 C 96 % 1002,2 hPa 0,0 l/m 0 min 0 min 0,0 UV-I 37 W/m 5,1 km/h (1 Bft)
17.05.2013 14:26 10,7 C 10,1 C 96 % 1002,3 hPa 0,0 l/m 0 min 0 min 0,0 UV-I 33 W/m 0,0 km/h (0 Bft)
17.05.2013 14:28 10,7 C 10,1 C 96 % 1002,3 hPa 0,0 l/m 0 min 0 min 0,0 UV-I 37 W/m 0,0 km/h (0 Bft)
17.05.2013 14:30 10,6 C 9,6 C 96 % 1002,3 hPa 0,0 l/m 0 min 0 min 0,0 UV-I 47 W/m 7,7 km/h (2 Bft)
17.05.2013 14:32 10,7 C 10,1 C 96 % 1002,3 hPa 0,0 l/m 0 min 0 min 0,0 UV-I 58 W/m 0,0 km/h (0 Bft)
17.05.2013 14:34 10,6 C 10,1 C 96 % 1002,3 hPa 0,0 l/m 0 min 0 min 0,0 UV-I 70 W/m 7,7 km/h (2 Bft)
17.05.2013 14:36 10,6 C 10,1 C 96 % 1002,4 hPa 0,0 l/m 0 min 0 min 0,0 UV-I 88 W/m 0,0 km/h (0 Bft)
17.05.2013 14:38 10,6 C 10,1 C 96 % 1002,4 hPa 0,0 l/m 0 min 0 min 0,0 UV-I 88 W/m 5,1 km/h (1 Bft)
17.05.2013 14:40 10,6 C 10,1 C 96 % 1002,4 hPa 0,0 l/m 0 min 0 min 0,0 UV-I 70 W/m 0,0 km/h (0 Bft)
17.05.2013 14:42 10,6 C 10,1 C 96 % 1002,5 hPa 0,0 l/m 0 min 0 min 0,0 UV-I 62 W/m 10,3 km/h (2 Bft)
17.05.2013 14:44 10,6 C 10,1 C 96 % 1002,5 hPa 0,0 l/m 0 min 0 min 0,0 UV-I 60 W/m 5,1 km/h (1 Bft)
17.05.2013 14:46 10,6 C 10,1 C 96 % 1002,5 hPa 0,0 l/m 0 min 0 min 0,0 UV-I 60 W/m 0,0 km/h (0 Bft)
17.05.2013 14:48 10,6 C 10,1 C 96 % 1002,5 hPa 0,0 l/m 0 min 0 min 0,0 UV-I 49 W/m 0,0 km/h (0 Bft)
17.05.2013 14:50 10,6 C 10,1 C 96 % 1002,6 hPa 0,0 l/m 0 min 0 min 0,0 UV-I 44 W/m 0,0 km/h (0 Bft)
17.05.2013 14:52 10,6 C 10,1 C 95 % 1002,6 hPa 0,0 l/m 0 min 0 min 0,0 UV-I 49 W/m 7,7 km/h (2 Bft)
17.05.2013 14:54 10,6 C 10,1 C 95 % 1002,4 hPa 0,0 l/m 0 min 0 min 0,0 UV-I 56 W/m 0,0 km/h (0 Bft)
17.05.2013 14:56 10,6 C 10,1 C 95 % 1002,4 hPa 0,0 l/m 0 min 0 min 0,0 UV-I 67 W/m 2,6 km/h (1 Bft)
17.05.2013 14:58 10,6 C 10,1 C 95 % 1002,4 hPa 0,0 l/m 0 min 0 min 0,0 UV-I 77 W/m 0,0 km/h (0 Bft)
17.05.2013 15:00 10,6 C 10,1 C 95 % 1002,4 hPa 0,0 l/m 0 min 0 min 0,0 UV-I 79 W/m 0,0 km/h (0 Bft)
17.05.2013 15:02 10,7 C 10,1 C 95 % 1002,5 hPa 0,0 l/m 0 min 0 min 0,0 UV-I 76 W/m 0,0 km/h (0 Bft)
17.05.2013 15:04 10,7 C 10,1 C 95 % 1002,5 hPa 0,0 l/m 0 min 0 min 0,0 UV-I 56 W/m 0,0 km/h (0 Bft)
17.05.2013 15:06 10,7 C 10,1 C 95 % 1002,6 hPa 0,0 l/m 0 min 0 min 0,0 UV-I 42 W/m 0,0 km/h (0 Bft)
17.05.2013 15:08 10,7 C 10,1 C 95 % 1002,6 hPa 0,0 l/m 0 min 0 min 0,0 UV-I 28 W/m 0,0 km/h (0 Bft)
17.05.2013 15:10 10,7 C 10,1 C 95 % 1002,6 hPa 0,0 l/m 0 min 0 min 0,0 UV-I 30 W/m 0,0 km/h (0 Bft)
17.05.2013 15:12 10,7 C 9,6 C 95 % 1002,6 hPa 0,0 l/m 0 min 0 min 0,0 UV-I 32 W/m 0,0 km/h (0 Bft)
17.05.2013 15:14 10,7 C 9,6 C 95 % 1002,6 hPa 0,0 l/m 0 min 0 min 0,0 UV-I 30 W/m 7,7 km/h (2 Bft)
17.05.2013 15:16 10,7 C 9,6 C 95 % 1002,7 hPa 0,0 l/m 0 min 0 min 0,0 UV-I 32 W/m 12,9 km/h (3 Bft)
17.05.2013 15:18 10,6 C 9,6 C 95 % 1002,6 hPa 0,0 l/m 0 min 0 min 0,0 UV-I 33 W/m 10,3 km/h (2 Bft)
17.05.2013 15:20 10,6 C 9,6 C 95 % 1002,7 hPa 0,0 l/m 0 min 0 min 0,0 UV-I 39 W/m 7,7 km/h (2 Bft)
17.05.2013 15:22 10,6 C 9,6 C 95 % 1002,7 hPa 0,0 l/m 0 min 0 min 0,0 UV-I 40 W/m 0,0 km/h (0 Bft)
17.05.2013 15:24 10,6 C 9,6 C 95 % 1002,8 hPa 0,0 l/m 0 min 0 min 0,0 UV-I 44 W/m 0,0 km/h (0 Bft)
17.05.2013 15:26 10,6 C 9,6 C 95 % 1002,9 hPa 0,0 l/m 0 min 0 min 0,0 UV-I 44 W/m 0,0 km/h (0 Bft)
17.05.2013 15:28 10,6 C 9,6 C 95 % 1002,9 hPa 0,0 l/m 0 min 0 min 0,0 UV-I 39 W/m 0,0 km/h (0 Bft)
17.05.2013 15:30 10,6 C 9,6 C 95 % 1003,0 hPa 0,0 l/m 0 min 0 min 0,0 UV-I 35 W/m 0,0 km/h (0 Bft)
17.05.2013 15:32 10,6 C 9,6 C 95 % 1003,0 hPa 0,0 l/m 0 min 0 min 0,0 UV-I 32 W/m 5,1 km/h (1 Bft)
17.05.2013 15:34 10,5 C 9,6 C 95 % 1003,0 hPa 0,0 l/m 0 min 0 min 0,0 UV-I 32 W/m 5,1 km/h (1 Bft)
17.05.2013 15:36 10,5 C 9,6 C 95 % 1003,0 hPa 0,0 l/m 0 min 0 min 0,0 UV-I 32 W/m 0,0 km/h (0 Bft)
17.05.2013 15:38 10,5 C 9,6 C 95 % 1003,0 hPa 0,0 l/m 0 min 0 min 0,0 UV-I 35 W/m 0,0 km/h (0 Bft)
17.05.2013 15:40 10,5 C 9,6 C 95 % 1003,0 hPa 0,0 l/m 0 min 0 min 0,0 UV-I 35 W/m 5,1 km/h (1 Bft)
17.05.2013 15:42 10,4 C 9,6 C 95 % 1003,1 hPa 0,0 l/m 0 min 0 min 0,0 UV-I 35 W/m 5,1 km/h (1 Bft)
17.05.2013 15:44 10,4 C 9,6 C 95 % 1003,2 hPa 0,0 l/m 0 min 0 min 0,0 UV-I 33 W/m 5,1 km/h (1 Bft)
17.05.2013 15:46 10,4 C 9,6 C 95 % 1003,2 hPa 0,0 l/m 0 min 0 min 0,0 UV-I 28 W/m 0,0 km/h (0 Bft)
17.05.2013 15:48 10,4 C 9,6 C 95 % 1003,3 hPa 0,0 l/m 0 min 0 min 0,0 UV-I 25 W/m 0,0 km/h (0 Bft)
17.05.2013 15:50 10,4 C 9,6 C 95 % 1003,3 hPa 0,0 l/m 0 min 0 min 0,0 UV-I 23 W/m 5,1 km/h (1 Bft)
17.05.2013 15:52 10,4 C 9,6 C 95 % 1003,3 hPa 0,0 l/m 0 min 0 min 0,0 UV-I 21 W/m 5,1 km/h (1 Bft)
17.05.2013 15:54 10,4 C 9,6 C 95 % 1003,3 hPa 0,0 l/m 0 min 0 min 0,0 UV-I 25 W/m 2,6 km/h (1 Bft)
17.05.2013 15:56 10,4 C 9,6 C 95 % 1003,3 hPa 0,0 l/m 0 min 0 min 0,0 UV-I 26 W/m 5,1 km/h (1 Bft)
17.05.2013 15:58 10,4 C 9,6 C 95 % 1003,3 hPa 0,0 l/m 0 min 0 min 0,0 UV-I 30 W/m 0,0 km/h (0 Bft)
17.05.2013 16:00 10,4 C 9,6 C 95 % 1003,4 hPa 0,0 l/m 0 min 2 min 0,0 UV-I 30 W/m 0,0 km/h (0 Bft)
17.05.2013 16:02 10,4 C 9,0 C 95 % 1003,3 hPa 0,0 l/m 0 min 2 min 0,0 UV-I 30 W/m 0,0 km/h (0 Bft)
17.05.2013 16:04 10,4 C 9,0 C 95 % 1003,3 hPa 0,0 l/m 0 min 2 min 0,0 UV-I 32 W/m 0,0 km/h (0 Bft)
17.05.2013 16:06 10,3 C 9,0 C 95 % 1003,3 hPa 0,0 l/m 0 min 2 min 0,0 UV-I 37 W/m 2,6 km/h (1 Bft)
17.05.2013 16:08 10,3 C 9,0 C 95 % 1003,2 hPa 0,0 l/m 0 min 2 min 0,0 UV-I 44 W/m 0,0 km/h (0 Bft)
17.05.2013 16:10 10,3 C 9,0 C 95 % 1003,2 hPa 0,0 l/m 0 min 2 min 0,0 UV-I 46 W/m 7,7 km/h (2 Bft)
17.05.2013 16:12 10,3 C 9,0 C 95 % 1003,2 hPa 0,0 l/m 0 min 2 min 0,0 UV-I 49 W/m 7,7 km/h (2 Bft)
17.05.2013 16:14 10,3 C 9,0 C 96 % 1003,2 hPa 0,0 l/m 0 min 2 min 0,0 UV-I 51 W/m 5,1 km/h (1 Bft)
17.05.2013 16:16 10,3 C 9,0 C 96 % 1003,1 hPa 0,2 l/m 0 min 2 min 0,0 UV-I 51 W/m 0,0 km/h (0 Bft)
17.05.2013 16:18 10,3 C 9,0 C 96 % 1003,1 hPa 0,0 l/m 0 min 0 min 0,0 UV-I 49 W/m 0,0 km/h (0 Bft)
17.05.2013 16:20 10,2 C 9,6 C 96 % 1003,0 hPa 0,0 l/m 0 min 2 min 0,0 UV-I 40 W/m 0,0 km/h (0 Bft)
17.05.2013 16:22 10,2 C 9,0 C 96 % 1002,7 hPa 0,0 l/m 0 min 0 min 0,0 UV-I 33 W/m 10,3 km/h (2 Bft)
17.05.2013 16:24 10,2 C 9,0 C 96 % 1002,6 hPa 0,0 l/m 0 min 2 min 0,0 UV-I 28 W/m 12,9 km/h (3 Bft)
17.05.2013 16:26 10,2 C 9,0 C 96 % 1002,6 hPa 0,0 l/m 0 min 0 min 0,0 UV-I 26 W/m 10,3 km/h (2 Bft)
17.05.2013 16:28 10,2 C 9,0 C 96 % 1002,6 hPa 0,0 l/m 0 min 0 min 0,0 UV-I 28 W/m 7,7 km/h (2 Bft)
17.05.2013 16:30 10,2 C 9,0 C 96 % 1002,6 hPa 0,0 l/m 0 min 0 min 0,0 UV-I 28 W/m 7,7 km/h (2 Bft)
17.05.2013 16:32 10,1 C 9,0 C 96 % 1002,5 hPa 0,0 l/m 0 min 0 min 0,0 UV-I 26 W/m 10,3 km/h (2 Bft)
17.05.2013 16:34 10,1 C 9,0 C 96 % 1002,5 hPa 0,0 l/m 0 min 0 min 0,0 UV-I 26 W/m 7,7 km/h (2 Bft)
17.05.2013 16:36 10,1 C 9,0 C 96 % 1002,5 hPa 0,0 l/m 0 min 0 min 0,0 UV-I 25 W/m 0,0 km/h (0 Bft)
17.05.2013 16:38 10,1 C 9,0 C 96 % 1002,6 hPa 0,0 l/m 0 min 0 min 0,0 UV-I 26 W/m 0,0 km/h (0 Bft)
17.05.2013 16:40 10,1 C 9,0 C 96 % 1002,6 hPa 0,0 l/m 0 min 2 min 0,0 UV-I 32 W/m 0,0 km/h (0 Bft)
17.05.2013 16:42 10,1 C 9,0 C 96 % 1002,6 hPa 0,0 l/m 0 min 2 min 0,0 UV-I 35 W/m 0,0 km/h (0 Bft)
17.05.2013 16:44 10,1 C 9,0 C 96 % 1002,6 hPa 0,0 l/m 0 min 2 min 0,0 UV-I 35 W/m 2,6 km/h (1 Bft)
17.05.2013 16:46 10,1 C 9,0 C 96 % 1002,5 hPa 0,2 l/m 0 min 2 min 0,0 UV-I 37 W/m 0,0 km/h (0 Bft)
17.05.2013 16:48 10,1 C 9,0 C 96 % 1002,6 hPa 0,0 l/m 0 min 2 min 0,0 UV-I 40 W/m 0,0 km/h (0 Bft)
17.05.2013 16:50 10,1 C 9,0 C 96 % 1002,6 hPa 0,0 l/m 0 min 2 min 0,0 UV-I 40 W/m 0,0 km/h (0 Bft)
17.05.2013 16:52 10,1 C 9,0 C 96 % 1002,7 hPa 0,0 l/m 0 min 2 min 0,0 UV-I 42 W/m 0,0 km/h (0 Bft)
17.05.2013 16:54 10,1 C 9,0 C 96 % 1002,6 hPa 0,2 l/m 0 min 2 min 0,0 UV-I 44 W/m 0,0 km/h (0 Bft)
17.05.2013 16:56 10,1 C 9,6 C 96 % 1002,8 hPa 0,0 l/m 0 min 2 min 0,0 UV-I 47 W/m 0,0 km/h (0 Bft)
17.05.2013 16:58 10,1 C 9,0 C 96 % 1002,8 hPa 0,0 l/m 0 min 2 min 0,0 UV-I 53 W/m 0,0 km/h (0 Bft)
17.05.2013 17:00 10,2 C 9,0 C 96 % 1002,8 hPa 0,0 l/m 0 min 2 min 0,0 UV-I 54 W/m 0,0 km/h (0 Bft)
17.05.2013 17:02 10,1 C 9,0 C 96 % 1002,8 hPa 0,0 l/m 0 min 2 min 0,0 UV-I 47 W/m 0,0 km/h (0 Bft)
17.05.2013 17:04 10,1 C 9,6 C 96 % 1002,8 hPa 0,0 l/m 0 min 2 min 0,0 UV-I 35 W/m 0,0 km/h (0 Bft)
17.05.2013 17:06 10,1 C 9,6 C 96 % 1002,9 hPa 0,0 l/m 0 min 2 min 0,0 UV-I 40 W/m 0,0 km/h (0 Bft)
17.05.2013 17:08 10,1 C 9,6 C 96 % 1002,9 hPa 0,0 l/m 0 min 2 min 0,0 UV-I 40 W/m 0,0 km/h (0 Bft)
17.05.2013 17:10 10,1 C 9,0 C 97 % 1003,0 hPa 0,0 l/m 0 min 0 min 0,0 UV-I 46 W/m 2,6 km/h (1 Bft)
17.05.2013 17:12 10,1 C 9,0 C 97 % 1003,0 hPa 0,0 l/m 0 min 0 min 0,0 UV-I 42 W/m 7,7 km/h (2 Bft)
17.05.2013 17:14 10,1 C 9,6 C 97 % 1003,0 hPa 0,0 l/m 0 min 0 min 0,0 UV-I 39 W/m 0,0 km/h (0 Bft)
17.05.2013 17:16 10,2 C 9,6 C 97 % 1003,1 hPa 0,0 l/m 0 min 0 min 0,0 UV-I 42 W/m 2,6 km/h (1 Bft)
17.05.2013 17:18 10,2 C 9,0 C 97 % 1003,0 hPa 0,0 l/m 0 min 0 min 0,0 UV-I 49 W/m 5,1 km/h (1 Bft)
17.05.2013 17:20 10,2 C 9,6 C 97 % 1003,1 hPa 0,0 l/m 0 min 2 min 0,0 UV-I 53 W/m 7,7 km/h (2 Bft)
17.05.2013 17:22 10,1 C 9,6 C 97 % 1003,1 hPa 0,0 l/m 0 min 2 min 0,0 UV-I 53 W/m 0,0 km/h (0 Bft)
17.05.2013 17:24 10,1 C 9,6 C 97 % 1003,1 hPa 0,0 l/m 0 min 2 min 0,0 UV-I 51 W/m 0,0 km/h (0 Bft)
17.05.2013 17:26 10,1 C 9,6 C 97 % 1003,1 hPa 0,0 l/m 0 min 2 min 0,0 UV-I 51 W/m 0,0 km/h (0 Bft)
17.05.2013 17:28 10,1 C 9,6 C 97 % 1003,1 hPa 0,0 l/m 0 min 0 min 0,0 UV-I 53 W/m 7,7 km/h (2 Bft)
17.05.2013 17:30 10,1 C 9,6 C 97 % 1003,0 hPa 0,0 l/m 0 min 2 min 0,0 UV-I 53 W/m 0,0 km/h (0 Bft)
17.05.2013 17:32 10,1 C 9,6 C 97 % 1003,0 hPa 0,0 l/m 0 min 0 min 0,0 UV-I 56 W/m 5,1 km/h (1 Bft)
17.05.2013 17:34 10,1 C 9,6 C 97 % 1003,0 hPa 0,0 l/m 0 min 2 min 0,0 UV-I 56 W/m 0,0 km/h (0 Bft)
17.05.2013 17:36 10,1 C 9,6 C 97 % 1002,9 hPa 0,0 l/m 0 min 0 min 0,0 UV-I 62 W/m 2,6 km/h (1 Bft)
17.05.2013 17:38 10,2 C 9,6 C 97 % 1002,9 hPa 0,0 l/m 0 min 0 min 0,0 UV-I 67 W/m 0,0 km/h (0 Bft)
17.05.2013 17:40 10,2 C 9,6 C 97 % 1002,9 hPa 0,0 l/m 0 min 0 min 0,0 UV-I 70 W/m 0,0 km/h (0 Bft)
17.05.2013 17:42 10,2 C 9,6 C 97 % 1003,0 hPa 0,0 l/m 0 min 0 min 0,0 UV-I 63 W/m 0,0 km/h (0 Bft)
17.05.2013 17:44 10,2 C 9,6 C 97 % 1003,0 hPa 0,0 l/m 0 min 2 min 0,0 UV-I 65 W/m 7,7 km/h (2 Bft)
17.05.2013 17:46 10,2 C 9,6 C 97 % 1003,1 hPa 0,0 l/m 0 min 2 min 0,0 UV-I 69 W/m 0,0 km/h (0 Bft)
17.05.2013 17:48 10,2 C 9,6 C 97 % 1003,1 hPa 0,0 l/m 0 min 2 min 0,0 UV-I 79 W/m 5,1 km/h (1 Bft)
17.05.2013 17:50 10,2 C 9,6 C 97 % 1003,1 hPa 0,0 l/m 0 min 2 min 0,0 UV-I 84 W/m 7,7 km/h (2 Bft)
17.05.2013 17:52 10,2 C 9,6 C 97 % 1003,2 hPa 0,0 l/m 0 min 2 min 0,0 UV-I 81 W/m 5,1 km/h (1 Bft)
17.05.2013 17:54 10,2 C 9,6 C 97 % 1003,2 hPa 0,0 l/m 0 min 2 min 0,0 UV-I 84 W/m 7,7 km/h (2 Bft)
17.05.2013 17:56 10,2 C 9,6 C 97 % 1003,2 hPa 0,0 l/m 0 min 2 min 0,0 UV-I 90 W/m 2,6 km/h (1 Bft)
17.05.2013 17:58 10,3 C 9,6 C 97 % 1003,2 hPa 0,0 l/m 0 min 2 min 0,0 UV-I 90 W/m 0,0 km/h (0 Bft)
17.05.2013 18:00 10,3 C 10,1 C 97 % 1003,2 hPa 0,0 l/m 0 min 2 min 0,0 UV-I 91 W/m 0,0 km/h (0 Bft)
17.05.2013 18:02 10,3 C 10,1 C 97 % 1003,2 hPa 0,0 l/m 0 min 2 min 0,0 UV-I 107 W/m 0,0 km/h (0 Bft)
17.05.2013 18:04 10,3 C 10,1 C 97 % 1003,1 hPa 0,0 l/m 0 min 2 min 0,0 UV-I 125 W/m 0,0 km/h (0 Bft)
17.05.2013 18:06 10,4 C 10,1 C 97 % 1003,1 hPa 0,0 l/m 0 min 2 min 0,0 UV-I 118 W/m 0,0 km/h (0 Bft)
17.05.2013 18:08 10,4 C 10,1 C 97 % 1003,1 hPa 0,0 l/m 0 min 0 min 0,0 UV-I 100 W/m 0,0 km/h (0 Bft)
17.05.2013 18:10 10,4 C 10,1 C 97 % 1003,3 hPa 0,0 l/m 0 min 0 min 0,0 UV-I 60 W/m 0,0 km/h (0 Bft)
17.05.2013 18:12 10,4 C 10,1 C 97 % 1003,3 hPa 0,0 l/m 0 min 0 min 0,0 UV-I 37 W/m 0,0 km/h (0 Bft)
17.05.2013 18:14 10,4 C 9,6 C 97 % 1003,3 hPa 0,0 l/m 0 min 0 min 0,0 UV-I 39 W/m 5,1 km/h (1 Bft)
17.05.2013 18:16 10,4 C 9,6 C 97 % 1003,3 hPa 0,0 l/m 0 min 0 min 0,0 UV-I 40 W/m 5,1 km/h (1 Bft)
17.05.2013 18:18 10,4 C 9,6 C 97 % 1003,3 hPa 0,0 l/m 0 min 0 min 0,0 UV-I 46 W/m 0,0 km/h (0 Bft)
17.05.2013 18:20 10,4 C 9,6 C 97 % 1003,3 hPa 0,0 l/m 0 min 0 min 0,0 UV-I 44 W/m 0,0 km/h (0 Bft)
17.05.2013 18:22 10,4 C 9,6 C 97 % 1003,3 hPa 0,0 l/m 0 min 2 min 0,0 UV-I 42 W/m 5,1 km/h (1 Bft)
17.05.2013 18:24 10,4 C 9,6 C 97 % 1003,2 hPa 0,0 l/m 0 min 2 min 0,0 UV-I 46 W/m 2,6 km/h (1 Bft)
17.05.2013 18:26 10,4 C 9,6 C 97 % 1003,3 hPa 0,0 l/m 0 min 2 min 0,0 UV-I 58 W/m 7,7 km/h (2 Bft)
17.05.2013 18:28 10,3 C 9,6 C 97 % 1003,3 hPa 0,0 l/m 0 min 2 min 0,0 UV-I 74 W/m 0,0 km/h (0 Bft)
17.05.2013 18:30 10,4 C 9,6 C 97 % 1003,4 hPa 0,0 l/m 0 min 2 min 0,0 UV-I 81 W/m 0,0 km/h (0 Bft)
17.05.2013 18:32 10,4 C 9,6 C 97 % 1003,4 hPa 0,0 l/m 0 min 2 min 0,0 UV-I 56 W/m 0,0 km/h (0 Bft)
17.05.2013 18:34 10,4 C 9,6 C 97 % 1003,4 hPa 0,0 l/m 0 min 2 min 0,0 UV-I 39 W/m 0,0 km/h (0 Bft)
17.05.2013 18:36 10,4 C 9,6 C 97 % 1003,4 hPa 0,0 l/m 0 min 0 min 0,0 UV-I 42 W/m 0,0 km/h (0 Bft)
17.05.2013 18:38 10,4 C 9,6 C 97 % 1003,4 hPa 0,0 l/m 0 min 0 min 0,0 UV-I 37 W/m 0,0 km/h (0 Bft)
17.05.2013 18:40 10,4 C 9,6 C 97 % 1003,3 hPa 0,1 l/m 0 min 0 min 0,0 UV-I 40 W/m 0,0 km/h (0 Bft)
17.05.2013 18:42 10,4 C 9,6 C 97 % 1003,4 hPa 0,0 l/m 0 min 0 min 0,0 UV-I 51 W/m 0,0 km/h (0 Bft)
17.05.2013 18:44 10,4 C 9,6 C 97 % 1003,5 hPa 0,0 l/m 0 min 0 min 0,0 UV-I 47 W/m 0,0 km/h (0 Bft)
17.05.2013 18:46 10,4 C 9,6 C 97 % 1003,5 hPa 0,0 l/m 0 min 0 min 0,0 UV-I 53 W/m 0,0 km/h (0 Bft)
17.05.2013 18:48 10,4 C 9,6 C 97 % 1003,6 hPa 0,0 l/m 0 min 0 min 0,0 UV-I 53 W/m 0,0 km/h (0 Bft)
17.05.2013 18:50 10,4 C 9,6 C 97 % 1003,6 hPa 0,0 l/m 0 min 0 min 0,0 UV-I 47 W/m 0,0 km/h (0 Bft)
17.05.2013 18:52 10,4 C 9,6 C 97 % 1003,6 hPa 0,0 l/m 0 min 0 min 0,0 UV-I 54 W/m 0,0 km/h (0 Bft)
17.05.2013 18:54 10,4 C 9,6 C 97 % 1003,6 hPa 0,0 l/m 0 min 0 min 0,0 UV-I 60 W/m 0,0 km/h (0 Bft)
17.05.2013 18:56 10,4 C 9,6 C 97 % 1003,6 hPa 0,0 l/m 0 min 0 min 0,0 UV-I 53 W/m 0,0 km/h (0 Bft)
17.05.2013 18:58 10,4 C 9,6 C 97 % 1003,7 hPa 0,0 l/m 0 min 0 min 0,0 UV-I 46 W/m 0,0 km/h (0 Bft)
17.05.2013 19:00 10,4 C 9,6 C 97 % 1003,7 hPa 0,0 l/m 0 min 0 min 0,0 UV-I 42 W/m 0,0 km/h (0 Bft)
17.05.2013 19:02 10,4 C 9,6 C 97 % 1003,6 hPa 0,0 l/m 0 min 0 min 0,0 UV-I 53 W/m 0,0 km/h (0 Bft)
17.05.2013 19:04 10,4 C 9,6 C 97 % 1003,7 hPa 0,0 l/m 0 min 0 min 0,0 UV-I 42 W/m 0,0 km/h (0 Bft)
17.05.2013 19:06 10,4 C 9,6 C 97 % 1003,7 hPa 0,0 l/m 0 min 0 min 0,0 UV-I 40 W/m 0,0 km/h (0 Bft)
17.05.2013 19:08 10,4 C 9,6 C 97 % 1003,7 hPa 0,0 l/m 0 min 2 min 0,0 UV-I 46 W/m 0,0 km/h (0 Bft)
17.05.2013 19:10 10,4 C 9,6 C 97 % 1003,7 hPa 0,0 l/m 0 min 2 min 0,0 UV-I 51 W/m 0,0 km/h (0 Bft)
17.05.2013 19:12 10,4 C 9,6 C 97 % 1003,7 hPa 0,0 l/m 0 min 2 min 0,0 UV-I 60 W/m 0,0 km/h (0 Bft)
17.05.2013 19:14 10,4 C 9,6 C 97 % 1003,7 hPa 0,0 l/m 0 min 0 min 0,0 UV-I 60 W/m 0,0 km/h (0 Bft)
17.05.2013 19:16 10,4 C 9,6 C 97 % 1003,7 hPa 0,0 l/m 0 min 0 min 0,0 UV-I 54 W/m 0,0 km/h (0 Bft)
17.05.2013 19:18 10,4 C 9,6 C 97 % 1003,7 hPa 0,0 l/m 0 min 0 min 0,0 UV-I 51 W/m 0,0 km/h (0 Bft)
17.05.2013 19:20 10,4 C 9,6 C 97 % 1003,6 hPa 0,0 l/m 0 min 2 min 0,0 UV-I 60 W/m 5,1 km/h (1 Bft)
17.05.2013 19:22 10,4 C 9,6 C 97 % 1003,7 hPa 0,0 l/m 0 min 0 min 0,0 UV-I 49 W/m 7,7 km/h (2 Bft)
17.05.2013 19:24 10,4 C 9,6 C 97 % 1003,7 hPa 0,0 l/m 0 min 2 min 0,0 UV-I 39 W/m 2,6 km/h (1 Bft)
17.05.2013 19:28 10,4 C 9,6 C 97 % 1003,6 hPa 0,0 l/m 0 min 0 min 0,0 UV-I 51 W/m 2,6 km/h (1 Bft)
17.05.2013 19:30 10,4 C 9,6 C 97 % 1003,7 hPa 0,0 l/m 0 min 0 min 0,0 UV-I 62 W/m 0,0 km/h (0 Bft)
17.05.2013 19:32 10,4 C 9,6 C 97 % 1003,7 hPa 0,0 l/m 0 min 0 min 0,0 UV-I 51 W/m 0,0 km/h (0 Bft)
17.05.2013 19:34 10,4 C 9,6 C 97 % 1003,7 hPa 0,0 l/m 0 min 0 min 0,0 UV-I 51 W/m 0,0 km/h (0 Bft)
17.05.2013 19:36 10,4 C 9,6 C 97 % 1003,7 hPa 0,0 l/m 0 min 0 min 0,0 UV-I 47 W/m 7,7 km/h (2 Bft)
17.05.2013 19:38 10,4 C 9,6 C 97 % 1003,7 hPa 0,0 l/m 0 min 0 min 0,0 UV-I 33 W/m 7,7 km/h (2 Bft)
17.05.2013 19:40 10,4 C 9,6 C 97 % 1003,7 hPa 0,0 l/m 0 min 0 min 0,0 UV-I 26 W/m 7,7 km/h (2 Bft)
17.05.2013 19:42 10,4 C 9,6 C 97 % 1003,7 hPa 0,0 l/m 0 min 0 min 0,0 UV-I 28 W/m 2,6 km/h (1 Bft)
17.05.2013 19:44 10,4 C 9,6 C 97 % 1003,7 hPa 0,0 l/m 0 min 0 min 0,0 UV-I 32 W/m 0,0 km/h (0 Bft)
17.05.2013 19:46 10,4 C 9,6 C 97 % 1003,7 hPa 0,0 l/m 0 min 0 min 0,0 UV-I 35 W/m 0,0 km/h (0 Bft)
17.05.2013 19:48 10,4 C 9,6 C 97 % 1003,7 hPa 0,0 l/m 0 min 0 min 0,0 UV-I 37 W/m 0,0 km/h (0 Bft)
17.05.2013 19:50 10,4 C 9,6 C 97 % 1003,7 hPa 0,0 l/m 0 min 0 min 0,0 UV-I 32 W/m 2,6 km/h (1 Bft)
17.05.2013 19:52 10,4 C 9,6 C 97 % 1003,7 hPa 0,0 l/m 0 min 0 min 0,0 UV-I 28 W/m 0,0 km/h (0 Bft)
17.05.2013 19:54 10,4 C 9,6 C 97 % 1003,8 hPa 0,0 l/m 0 min 0 min 0,0 UV-I 28 W/m 0,0 km/h (0 Bft)
17.05.2013 19:56 10,3 C 9,6 C 97 % 1003,8 hPa 0,0 l/m 0 min 0 min 0,0 UV-I 33 W/m 5,1 km/h (1 Bft)
17.05.2013 19:58 10,3 C 9,6 C 97 % 1003,8 hPa 0,0 l/m 0 min 0 min 0,0 UV-I 35 W/m 0,0 km/h (0 Bft)
17.05.2013 20:00 10,4 C 9,6 C 97 % 1003,9 hPa 0,0 l/m 0 min 0 min 0,0 UV-I 35 W/m 0,0 km/h (0 Bft)
17.05.2013 20:02 10,3 C 9,6 C 97 % 1003,8 hPa 0,0 l/m 0 min 0 min 0,0 UV-I 30 W/m 5,1 km/h (1 Bft)
17.05.2013 20:04 10,3 C 9,6 C 97 % 1003,8 hPa 0,0 l/m 0 min 0 min 0,0 UV-I 25 W/m 2,6 km/h (1 Bft)
17.05.2013 20:06 10,3 C 9,6 C 97 % 1003,8 hPa 0,0 l/m 0 min 0 min 0,0 UV-I 19 W/m 0,0 km/h (0 Bft)
17.05.2013 20:08 10,3 C 9,6 C 97 % 1003,8 hPa 0,0 l/m 0 min 0 min 0,0 UV-I 16 W/m 0,0 km/h (0 Bft)
17.05.2013 20:10 10,3 C 9,0 C 97 % 1003,8 hPa 0,0 l/m 0 min 0 min 0,0 UV-I 14 W/m 0,0 km/h (0 Bft)
17.05.2013 20:12 10,3 C 9,0 C 97 % 1003,8 hPa 0,0 l/m 0 min 0 min 0,0 UV-I 14 W/m 5,1 km/h (1 Bft)
17.05.2013 20:14 10,3 C 9,0 C 97 % 1003,9 hPa 0,0 l/m 0 min 0 min 0,0 UV-I 12 W/m 7,7 km/h (2 Bft)
17.05.2013 20:16 10,3 C 9,0 C 97 % 1003,9 hPa 0,0 l/m 0 min 0 min 0,0 UV-I 11 W/m 2,6 km/h (1 Bft)
17.05.2013 20:18 10,3 C 9,0 C 97 % 1003,9 hPa 0,0 l/m 0 min 0 min 0,0 UV-I 9 W/m 5,1 km/h (1 Bft)
17.05.2013 20:20 10,3 C 9,0 C 97 % 1004,0 hPa 0,0 l/m 0 min 0 min 0,0 UV-I 9 W/m 0,0 km/h (0 Bft)
17.05.2013 20:22 10,2 C 9,0 C 97 % 1004,0 hPa 0,0 l/m 0 min 0 min 0,0 UV-I 9 W/m 0,0 km/h (0 Bft)
17.05.2013 20:24 10,2 C 9,0 C 97 % 1004,0 hPa 0,0 l/m 0 min 0 min 0,0 UV-I 9 W/m 0,0 km/h (0 Bft)
17.05.2013 20:26 10,2 C 9,0 C 97 % 1003,9 hPa 0,0 l/m 0 min 0 min 0,0 UV-I 9 W/m 2,6 km/h (1 Bft)
17.05.2013 20:28 10,2 C 9,0 C 97 % 1003,9 hPa 0,0 l/m 0 min 0 min 0,0 UV-I 11 W/m 0,0 km/h (0 Bft)
17.05.2013 20:30 10,2 C 9,0 C 97 % 1004,0 hPa 0,0 l/m 0 min 0 min 0,0 UV-I 11 W/m 0,0 km/h (0 Bft)
17.05.2013 20:32 10,2 C 9,0 C 97 % 1003,9 hPa 0,0 l/m 0 min 0 min 0,0 UV-I 11 W/m 0,0 km/h (0 Bft)
17.05.2013 20:34 10,2 C 9,0 C 97 % 1003,9 hPa 0,0 l/m 0 min 0 min 0,0 UV-I 11 W/m 0,0 km/h (0 Bft)
17.05.2013 20:36 10,2 C 9,0 C 97 % 1003,9 hPa 0,0 l/m 0 min 0 min 0,0 UV-I 11 W/m 0,0 km/h (0 Bft)
17.05.2013 20:38 10,2 C 9,0 C 97 % 1004,0 hPa 0,0 l/m 0 min 0 min 0,0 UV-I 9 W/m 0,0 km/h (0 Bft)
17.05.2013 20:40 10,2 C 9,0 C 97 % 1004,0 hPa 0,0 l/m 0 min 0 min 0,0 UV-I 9 W/m 0,0 km/h (0 Bft)
17.05.2013 20:42 10,2 C 9,0 C 97 % 1003,9 hPa 0,0 l/m 0 min 0 min 0,0 UV-I 9 W/m 0,0 km/h (0 Bft)
17.05.2013 20:44 10,2 C 9,0 C 97 % 1004,0 hPa 0,0 l/m 0 min 0 min 0,0 UV-I 7 W/m 0,0 km/h (0 Bft)
17.05.2013 20:46 10,2 C 9,0 C 97 % 1004,0 hPa 0,0 l/m 0 min 0 min 0,0 UV-I 5 W/m 0,0 km/h (0 Bft)
17.05.2013 20:48 10,2 C 9,0 C 97 % 1004,0 hPa 0,0 l/m 0 min 0 min 0,0 UV-I 5 W/m 0,0 km/h (0 Bft)
17.05.2013 20:50 10,2 C 9,0 C 97 % 1004,0 hPa 0,0 l/m 0 min 0 min 0,0 UV-I 5 W/m 0,0 km/h (0 Bft)
17.05.2013 20:52 10,2 C 9,0 C 97 % 1004,0 hPa 0,0 l/m 0 min 0 min 0,0 UV-I 5 W/m 0,0 km/h (0 Bft)
17.05.2013 20:54 10,2 C 9,0 C 97 % 1004,0 hPa 0,0 l/m 0 min 0 min 0,0 UV-I 7 W/m 0,0 km/h (0 Bft)
17.05.2013 20:56 10,1 C 9,0 C 97 % 1004,1 hPa 0,0 l/m 0 min 0 min 0,0 UV-I 7 W/m 0,0 km/h (0 Bft)
17.05.2013 20:58 10,1 C 9,0 C 97 % 1004,1 hPa 0,0 l/m 0 min 0 min 0,0 UV-I 9 W/m 0,0 km/h (0 Bft)
17.05.2013 21:00 10,1 C 9,0 C 97 % 1004,1 hPa 0,0 l/m 0 min 0 min 0,0 UV-I 7 W/m 0,0 km/h (0 Bft)
17.05.2013 21:02 10,1 C 9,0 C 97 % 1004,0 hPa 0,0 l/m 0 min 0 min 0,0 UV-I 7 W/m 0,0 km/h (0 Bft)
17.05.2013 21:04 10,1 C 9,0 C 97 % 1004,0 hPa 0,0 l/m 0 min 0 min 0,0 UV-I 7 W/m 0,0 km/h (0 Bft)
17.05.2013 21:06 10,1 C 9,0 C 97 % 1004,1 hPa 0,0 l/m 0 min 0 min 0,0 UV-I 5 W/m 0,0 km/h (0 Bft)
17.05.2013 21:08 10,1 C 9,0 C 97 % 1004,2 hPa 0,0 l/m 0 min 0 min 0,0 UV-I 0 W/m 10,3 km/h (2 Bft)
17.05.2013 21:10 10,1 C 9,0 C 97 % 1004,2 hPa 0,0 l/m 0 min 0 min 0,0 UV-I 0 W/m 0,0 km/h (0 Bft)
17.05.2013 21:12 10,1 C 9,0 C 97 % 1004,2 hPa 0,0 l/m 0 min 0 min 0,0 UV-I 0 W/m 0,0 km/h (0 Bft)
17.05.2013 21:14 10,1 C 9,0 C 97 % 1004,2 hPa 0,0 l/m 0 min 0 min 0,0 UV-I 0 W/m 0,0 km/h (0 Bft)
17.05.2013 21:16 10,1 C 9,0 C 97 % 1004,3 hPa 0,0 l/m 0 min 0 min 0,0 UV-I 0 W/m 2,6 km/h (1 Bft)
17.05.2013 21:18 10,1 C 9,0 C 97 % 1004,3 hPa 0,0 l/m 0 min 0 min 0,0 UV-I 0 W/m 7,7 km/h (2 Bft)
17.05.2013 21:20 10,1 C 9,0 C 97 % 1004,2 hPa 0,0 l/m 0 min 0 min 0,0 UV-I 0 W/m 2,6 km/h (1 Bft)
17.05.2013 21:22 10,1 C 9,0 C 97 % 1004,2 hPa 0,0 l/m 0 min 0 min 0,0 UV-I 0 W/m 0,0 km/h (0 Bft)
17.05.2013 21:24 10,1 C 9,0 C 97 % 1004,3 hPa 0,0 l/m 0 min 0 min 0,0 UV-I 0 W/m 0,0 km/h (0 Bft)
17.05.2013 21:26 10,0 C 9,0 C 97 % 1004,3 hPa 0,0 l/m 0 min 0 min 0,0 UV-I 0 W/m 0,0 km/h (0 Bft)
17.05.2013 21:28 10,0 C 9,0 C 97 % 1004,3 hPa 0,0 l/m 0 min 0 min 0,0 UV-I 0 W/m 5,1 km/h (1 Bft)
17.05.2013 21:30 10,0 C 9,0 C 97 % 1004,3 hPa 0,0 l/m 0 min 0 min 0,0 UV-I 0 W/m 0,0 km/h (0 Bft)
17.05.2013 21:32 10,0 C 9,0 C 97 % 1004,3 hPa 0,0 l/m 0 min 0 min 0,0 UV-I 0 W/m 0,0 km/h (0 Bft)
17.05.2013 21:34 10,0 C 9,0 C 97 % 1004,4 hPa 0,0 l/m 0 min 0 min 0,0 UV-I 0 W/m 2,6 km/h (1 Bft)
17.05.2013 21:36 10,0 C 9,0 C 97 % 1004,5 hPa 0,0 l/m 0 min 0 min 0,0 UV-I 0 W/m 2,6 km/h (1 Bft)
17.05.2013 21:38 10,0 C 9,0 C 97 % 1004,5 hPa 0,0 l/m 0 min 0 min 0,0 UV-I 0 W/m 0,0 km/h (0 Bft)
17.05.2013 21:40 9,9 C 9,0 C 97 % 1004,5 hPa 0,0 l/m 0 min 0 min 0,0 UV-I 0 W/m 0,0 km/h (0 Bft)
17.05.2013 21:42 9,9 C 9,0 C 97 % 1004,4 hPa 0,0 l/m 0 min 0 min 0,0 UV-I 0 W/m 0,0 km/h (0 Bft)
17.05.2013 21:44 9,9 C 9,0 C 97 % 1004,4 hPa 0,0 l/m 0 min 0 min 0,0 UV-I 0 W/m 0,0 km/h (0 Bft)
17.05.2013 21:46 9,9 C 9,0 C 97 % 1004,4 hPa 0,0 l/m 0 min 0 min 0,0 UV-I 0 W/m 0,0 km/h (0 Bft)
17.05.2013 21:50 9,9 C 9,0 C 97 % 1004,5 hPa 0,0 l/m 0 min 0 min 0,0 UV-I 0 W/m 0,0 km/h (0 Bft)
17.05.2013 21:54 9,9 C 9,0 C 97 % 1004,6 hPa 0,0 l/m 0 min 0 min 0,0 UV-I 0 W/m 0,0 km/h (0 Bft)
17.05.2013 21:56 9,9 C 9,0 C 97 % 1004,5 hPa 0,0 l/m 0 min 0 min 0,0 UV-I 0 W/m 0,0 km/h (0 Bft)
17.05.2013 21:58 9,9 C 9,0 C 97 % 1004,5 hPa 0,0 l/m 0 min 0 min 0,0 UV-I 0 W/m 2,6 km/h (1 Bft)
17.05.2013 22:00 9,9 C 9,0 C 97 % 1004,5 hPa 0,0 l/m 0 min 0 min 0,0 UV-I 0 W/m 0,0 km/h (0 Bft)
17.05.2013 22:02 9,9 C 9,0 C 97 % 1004,4 hPa 0,0 l/m 0 min 0 min 0,0 UV-I 0 W/m 0,0 km/h (0 Bft)
17.05.2013 22:04 9,9 C 9,0 C 97 % 1004,4 hPa 0,0 l/m 0 min 0 min 0,0 UV-I 0 W/m 2,6 km/h (1 Bft)
17.05.2013 22:06 9,9 C 9,0 C 97 % 1004,4 hPa 0,0 l/m 0 min 0 min 0,0 UV-I 0 W/m 5,1 km/h (1 Bft)
17.05.2013 22:08 9,9 C 9,0 C 97 % 1004,6 hPa 0,0 l/m 0 min 0 min 0,0 UV-I 0 W/m 0,0 km/h (0 Bft)
17.05.2013 22:10 9,8 C 9,0 C 97 % 1004,6 hPa 0,0 l/m 0 min 0 min 0,0 UV-I 0 W/m 0,0 km/h (0 Bft)
17.05.2013 22:12 9,8 C 9,0 C 97 % 1004,7 hPa 0,0 l/m 0 min 0 min 0,0 UV-I 0 W/m 0,0 km/h (0 Bft)
17.05.2013 22:14 9,8 C 9,0 C 97 % 1004,7 hPa 0,0 l/m 0 min 0 min 0,0 UV-I 0 W/m 0,0 km/h (0 Bft)
17.05.2013 22:16 9,8 C 9,0 C 97 % 1004,7 hPa 0,0 l/m 0 min 0 min 0,0 UV-I 0 W/m 0,0 km/h (0 Bft)
17.05.2013 22:18 9,8 C 9,0 C 97 % 1004,6 hPa 0,0 l/m 0 min 0 min 0,0 UV-I 0 W/m 5,1 km/h (1 Bft)
17.05.2013 22:20 9,8 C 8,4 C 97 % 1004,6 hPa 0,0 l/m 0 min 0 min 0,0 UV-I 0 W/m 5,1 km/h (1 Bft)
17.05.2013 22:22 9,8 C 8,4 C 97 % 1004,6 hPa 0,0 l/m 0 min 0 min 0,0 UV-I 0 W/m 0,0 km/h (0 Bft)
17.05.2013 22:24 9,8 C 8,4 C 97 % 1004,6 hPa 0,0 l/m 0 min 0 min 0,0 UV-I 0 W/m 0,0 km/h (0 Bft)
17.05.2013 22:26 9,8 C 9,0 C 97 % 1004,6 hPa 0,0 l/m 0 min 0 min 0,0 UV-I 0 W/m 0,0 km/h (0 Bft)
17.05.2013 22:28 9,8 C 9,0 C 97 % 1004,7 hPa 0,0 l/m 0 min 0 min 0,0 UV-I 0 W/m 0,0 km/h (0 Bft)
17.05.2013 22:30 9,8 C 9,0 C 97 % 1004,7 hPa 0,0 l/m 0 min 0 min 0,0 UV-I 0 W/m 0,0 km/h (0 Bft)
17.05.2013 22:32 9,8 C 9,0 C 97 % 1004,7 hPa 0,0 l/m 0 min 0 min 0,0 UV-I 0 W/m 5,1 km/h (1 Bft)
17.05.2013 22:34 9,8 C 8,4 C 97 % 1004,6 hPa 0,0 l/m 0 min 0 min 0,0 UV-I 0 W/m 5,1 km/h (1 Bft)
17.05.2013 22:36 9,8 C 8,4 C 97 % 1004,7 hPa 0,0 l/m 0 min 0 min 0,0 UV-I 0 W/m 5,1 km/h (1 Bft)
17.05.2013 22:38 9,8 C 8,4 C 97 % 1004,8 hPa 0,0 l/m 0 min 0 min 0,0 UV-I 0 W/m 0,0 km/h (0 Bft)
17.05.2013 22:40 9,7 C 8,4 C 97 % 1004,7 hPa 0,0 l/m 0 min 0 min 0,0 UV-I 0 W/m 0,0 km/h (0 Bft)
17.05.2013 22:42 9,7 C 8,4 C 97 % 1004,8 hPa 0,0 l/m 0 min 0 min 0,0 UV-I 0 W/m 5,1 km/h (1 Bft)
17.05.2013 22:44 9,7 C 8,4 C 97 % 1004,9 hPa 0,0 l/m 0 min 0 min 0,0 UV-I 0 W/m 5,1 km/h (1 Bft)
17.05.2013 22:46 9,7 C 8,4 C 97 % 1004,9 hPa 0,0 l/m 0 min 0 min 0,0 UV-I 0 W/m 2,6 km/h (1 Bft)
17.05.2013 22:48 9,7 C 8,4 C 97 % 1004,8 hPa 0,0 l/m 0 min 0 min 0,0 UV-I 0 W/m 0,0 km/h (0 Bft)
17.05.2013 22:50 9,7 C 8,4 C 97 % 1004,8 hPa 0,0 l/m 0 min 0 min 0,0 UV-I 0 W/m 0,0 km/h (0 Bft)
17.05.2013 22:52 9,7 C 8,4 C 97 % 1004,8 hPa 0,0 l/m 0 min 0 min 0,0 UV-I 0 W/m 5,1 km/h (1 Bft)
17.05.2013 22:54 9,7 C 8,4 C 97 % 1004,8 hPa 0,0 l/m 0 min 0 min 0,0 UV-I 0 W/m 2,6 km/h (1 Bft)
17.05.2013 22:56 9,7 C 8,4 C 97 % 1004,8 hPa 0,0 l/m 0 min 0 min 0,0 UV-I 0 W/m 0,0 km/h (0 Bft)
17.05.2013 22:58 9,7 C 8,4 C 97 % 1004,9 hPa 0,0 l/m 0 min 0 min 0,0 UV-I 0 W/m 0,0 km/h (0 Bft)
17.05.2013 23:00 9,7 C 8,4 C 97 % 1005,0 hPa 0,0 l/m 0 min 0 min 0,0 UV-I 0 W/m 0,0 km/h (0 Bft)
17.05.2013 23:02 9,7 C 8,4 C 97 % 1005,0 hPa 0,0 l/m 0 min 0 min 0,0 UV-I 0 W/m 0,0 km/h (0 Bft)
17.05.2013 23:04 9,6 C 8,4 C 97 % 1005,0 hPa 0,0 l/m 0 min 0 min 0,0 UV-I 0 W/m 0,0 km/h (0 Bft)
17.05.2013 23:06 9,6 C 8,4 C 97 % 1005,0 hPa 0,0 l/m 0 min 0 min 0,0 UV-I 0 W/m 10,3 km/h (2 Bft)
17.05.2013 23:08 9,6 C 8,4 C 97 % 1005,0 hPa 0,0 l/m 0 min 0 min 0,0 UV-I 0 W/m 0,0 km/h (0 Bft)
17.05.2013 23:10 9,6 C 8,4 C 97 % 1005,1 hPa 0,0 l/m 0 min 0 min 0,0 UV-I 0 W/m 0,0 km/h (0 Bft)
17.05.2013 23:12 9,6 C 8,4 C 97 % 1005,1 hPa 0,0 l/m 0 min 0 min 0,0 UV-I 0 W/m 0,0 km/h (0 Bft)
17.05.2013 23:14 9,6 C 8,4 C 97 % 1005,1 hPa 0,0 l/m 0 min 0 min 0,0 UV-I 0 W/m 5,1 km/h (1 Bft)
17.05.2013 23:16 9,6 C 8,4 C 97 % 1005,1 hPa 0,0 l/m 0 min 0 min 0,0 UV-I 0 W/m 0,0 km/h (0 Bft)
17.05.2013 23:18 9,6 C 8,4 C 97 % 1005,2 hPa 0,0 l/m 0 min 0 min 0,0 UV-I 0 W/m 5,1 km/h (1 Bft)
17.05.2013 23:20 9,6 C 8,4 C 97 % 1005,2 hPa 0,0 l/m 0 min 0 min 0,0 UV-I 0 W/m 2,6 km/h (1 Bft)
17.05.2013 23:22 9,6 C 8,4 C 97 % 1005,2 hPa 0,0 l/m 0 min 0 min 0,0 UV-I 0 W/m 0,0 km/h (0 Bft)
17.05.2013 23:24 9,6 C 8,4 C 97 % 1005,1 hPa 0,0 l/m 0 min 0 min 0,0 UV-I 0 W/m 0,0 km/h (0 Bft)
17.05.2013 23:26 9,6 C 8,4 C 97 % 1005,1 hPa 0,0 l/m 0 min 0 min 0,0 UV-I 0 W/m 2,6 km/h (1 Bft)
17.05.2013 23:28 9,5 C 8,4 C 97 % 1005,1 hPa 0,0 l/m 0 min 0 min 0,0 UV-I 0 W/m 0,0 km/h (0 Bft)
17.05.2013 23:30 9,5 C 8,4 C 97 % 1005,1 hPa 0,0 l/m 0 min 0 min 0,0 UV-I 0 W/m 5,1 km/h (1 Bft)
17.05.2013 23:32 9,5 C 8,4 C 97 % 1005,1 hPa 0,0 l/m 0 min 0 min 0,0 UV-I 0 W/m 0,0 km/h (0 Bft)
17.05.2013 23:34 9,5 C 8,4 C 97 % 1005,1 hPa 0,0 l/m 0 min 0 min 0,0 UV-I 0 W/m 0,0 km/h (0 Bft)
17.05.2013 23:36 9,5 C 8,4 C 97 % 1005,2 hPa 0,0 l/m 0 min 0 min 0,0 UV-I 0 W/m 10,3 km/h (2 Bft)
17.05.2013 23:38 9,4 C 8,4 C 97 % 1005,2 hPa 0,0 l/m 0 min 0 min 0,0 UV-I 0 W/m 0,0 km/h (0 Bft)
17.05.2013 23:40 9,4 C 8,4 C 97 % 1005,3 hPa 0,0 l/m 0 min 0 min 0,0 UV-I 0 W/m 2,6 km/h (1 Bft)
17.05.2013 23:42 9,4 C 8,4 C 97 % 1005,3 hPa 0,0 l/m 0 min 0 min 0,0 UV-I 0 W/m 5,1 km/h (1 Bft)
17.05.2013 23:44 9,4 C 8,4 C 97 % 1005,2 hPa 0,0 l/m 0 min 0 min 0,0 UV-I 0 W/m 0,0 km/h (0 Bft)
17.05.2013 23:46 9,4 C 8,4 C 97 % 1005,2 hPa 0,0 l/m 0 min 0 min 0,0 UV-I 0 W/m 0,0 km/h (0 Bft)
17.05.2013 23:48 9,4 C 8,4 C 97 % 1005,1 hPa 0,0 l/m 0 min 0 min 0,0 UV-I 0 W/m 10,3 km/h (2 Bft)
17.05.2013 23:50 9,4 C 8,4 C 97 % 1005,1 hPa 0,0 l/m 0 min 0 min 0,0 UV-I 0 W/m 2,6 km/h (1 Bft)
17.05.2013 23:52 9,4 C 8,4 C 97 % 1005,3 hPa 0,0 l/m 0 min 0 min 0,0 UV-I 0 W/m 5,1 km/h (1 Bft)
17.05.2013 23:54 9,4 C 8,4 C 97 % 1005,3 hPa 0,0 l/m 0 min 0 min 0,0 UV-I 0 W/m 0,0 km/h (0 Bft)
17.05.2013 23:56 9,3 C 8,4 C 97 % 1005,4 hPa 0,0 l/m 0 min 0 min 0,0 UV-I 0 W/m 0,0 km/h (0 Bft)
17.05.2013 23:58 9,3 C 8,4 C 97 % 1005,4 hPa 0,0 l/m 0 min 0 min 0,0 UV-I 0 W/m 0,0 km/h (0 Bft)
_ Min-Zeit 05:14 05:30 14:52 00:00 - - - - - 00:00
Minimum _ 8,8 C 7,9 C 95 % 998,0 hPa - - - - - 0,0 km/h (0 Bft)
_ Max-Zeit 13:48 12:16 07:54 23:56 16:16 00:00 06:26 00:00 12:10 12:38
Maximum _ 10,7 C 10,7 C 99 % 1005,4 hPa 0,2 l/m 0 min 2 min 0,0 UV-I 167 W/m 18,0 km/h
N-NW (3 Bft)
Durchschnitt _ 9,7 C 9,0 C 97 % 1001,5 hPa #0,8 l/m #0 min. #2:20 h 0,0 UV-I 54 W/m 2,8 km/h (1 Bft)
© 2013 W. Hausmann